<?xml version="1.0" encoding="UTF-8" standalone="no" ?>
<gpx xmlns="http://www.topografix.com/GPX/1/1" xmlns:xsi="http://www.w3.org/2001/XMLSchema-instance" xsi:schemaLocation="http://www.topografix.com/GPX/1/1 http://www.topografix.com/GPX/1/1/gpx.xsd" version="1.1" creator="VisuGPX - https://www.visugpx.com">
  <metadata>
    <name>Lisle-Sur-Tarn La Toscane Lisloise</name>
    <desc><![CDATA[Bonus la trace en vidéo : https://youtu.be/SjPWYXH3HqI
]]></desc>
  </metadata>
  <wpt lat="43.85692" lon="1.81165">
    <ele>125</ele>
    <name><![CDATA[]]></name>
  </wpt>
  <wpt lat="43.8569" lon="1.81159">
    <ele>125</ele>
    <name><![CDATA[]]></name>
  </wpt>
  <trk>
    <name><![CDATA[Lisle-Sur-Tarn La Toscane Lisloise]]></name>
    <trkseg>
      <trkpt lat="43.85692" lon="1.81165">
        <ele>125</ele>
        <time>2024-10-31T08:20:05+01:00</time>
      </trkpt>
      <trkpt lat="43.85715" lon="1.81177">
        <ele>125</ele>
        <time>2024-10-31T08:21:05+01:00</time>
      </trkpt>
      <trkpt lat="43.85726" lon="1.812">
        <ele>125</ele>
        <time>2024-10-31T08:21:30+01:00</time>
      </trkpt>
      <trkpt lat="43.85734" lon="1.81231">
        <ele>125</ele>
        <time>2024-10-31T08:22:05+01:00</time>
      </trkpt>
      <trkpt lat="43.85743" lon="1.81267">
        <ele>125</ele>
        <time>2024-10-31T08:22:30+01:00</time>
      </trkpt>
      <trkpt lat="43.85755" lon="1.81297">
        <ele>125</ele>
        <time>2024-10-31T08:22:55+01:00</time>
      </trkpt>
      <trkpt lat="43.85776" lon="1.81285">
        <ele>125</ele>
        <time>2024-10-31T08:23:20+01:00</time>
      </trkpt>
      <trkpt lat="43.85798" lon="1.81284">
        <ele>125</ele>
        <time>2024-10-31T08:23:40+01:00</time>
      </trkpt>
      <trkpt lat="43.85814" lon="1.81289">
        <ele>125</ele>
        <time>2024-10-31T08:24:00+01:00</time>
      </trkpt>
      <trkpt lat="43.85836" lon="1.81324">
        <ele>125</ele>
        <time>2024-10-31T08:24:30+01:00</time>
      </trkpt>
      <trkpt lat="43.85814" lon="1.81359">
        <ele>125</ele>
        <time>2024-10-31T08:24:55+01:00</time>
      </trkpt>
      <trkpt lat="43.85847" lon="1.81406">
        <ele>122</ele>
        <time>2024-10-31T08:25:30+01:00</time>
      </trkpt>
      <trkpt lat="43.85862" lon="1.81409">
        <ele>122</ele>
        <time>2024-10-31T08:25:50+01:00</time>
      </trkpt>
      <trkpt lat="43.8589" lon="1.81417">
        <ele>123</ele>
        <time>2024-10-31T08:26:10+01:00</time>
      </trkpt>
      <trkpt lat="43.85917" lon="1.81423">
        <ele>124</ele>
        <time>2024-10-31T08:26:35+01:00</time>
      </trkpt>
      <trkpt lat="43.85948" lon="1.81435">
        <ele>124</ele>
        <time>2024-10-31T08:26:55+01:00</time>
      </trkpt>
      <trkpt lat="43.85943" lon="1.81468">
        <ele>125</ele>
        <time>2024-10-31T08:27:20+01:00</time>
      </trkpt>
      <trkpt lat="43.85941" lon="1.81485">
        <ele>124</ele>
      </trkpt>
      <trkpt lat="43.85953" lon="1.81496">
        <ele>124</ele>
        <time>2024-10-31T08:28:15+01:00</time>
      </trkpt>
      <trkpt lat="43.85978" lon="1.81511">
        <ele>124</ele>
        <time>2024-10-31T08:28:35+01:00</time>
      </trkpt>
      <trkpt lat="43.86" lon="1.81524">
        <ele>124</ele>
        <time>2024-10-31T08:29:00+01:00</time>
      </trkpt>
      <trkpt lat="43.86023" lon="1.8154">
        <ele>124</ele>
        <time>2024-10-31T08:29:20+01:00</time>
      </trkpt>
      <trkpt lat="43.86043" lon="1.81556">
        <ele>125</ele>
        <time>2024-10-31T08:29:40+01:00</time>
      </trkpt>
      <trkpt lat="43.86056" lon="1.81566">
        <ele>125</ele>
      </trkpt>
      <trkpt lat="43.86053" lon="1.81597">
        <ele>123</ele>
        <time>2024-10-31T08:30:20+01:00</time>
      </trkpt>
      <trkpt lat="43.86066" lon="1.81598">
        <ele>124</ele>
      </trkpt>
      <trkpt lat="43.86076" lon="1.81617">
        <ele>124</ele>
        <time>2024-10-31T08:30:40+01:00</time>
      </trkpt>
      <trkpt lat="43.8609" lon="1.81639">
        <ele>124</ele>
        <time>2024-10-31T08:31:00+01:00</time>
      </trkpt>
      <trkpt lat="43.86106" lon="1.81671">
        <ele>124</ele>
        <time>2024-10-31T08:31:20+01:00</time>
      </trkpt>
      <trkpt lat="43.86124" lon="1.81694">
        <ele>124</ele>
        <time>2024-10-31T08:31:40+01:00</time>
      </trkpt>
      <trkpt lat="43.8614" lon="1.8172">
        <ele>124</ele>
        <time>2024-10-31T08:32:10+01:00</time>
      </trkpt>
      <trkpt lat="43.86158" lon="1.81747">
        <ele>124</ele>
        <time>2024-10-31T08:32:30+01:00</time>
      </trkpt>
      <trkpt lat="43.86173" lon="1.81773">
        <ele>124</ele>
        <time>2024-10-31T08:32:50+01:00</time>
      </trkpt>
      <trkpt lat="43.86186" lon="1.81799">
        <ele>124</ele>
        <time>2024-10-31T08:33:05+01:00</time>
      </trkpt>
      <trkpt lat="43.86207" lon="1.81828">
        <ele>123</ele>
        <time>2024-10-31T08:33:30+01:00</time>
      </trkpt>
      <trkpt lat="43.86226" lon="1.81848">
        <ele>123</ele>
        <time>2024-10-31T08:33:50+01:00</time>
      </trkpt>
      <trkpt lat="43.86243" lon="1.81873">
        <ele>122</ele>
        <time>2024-10-31T08:34:25+01:00</time>
      </trkpt>
      <trkpt lat="43.8625" lon="1.81898">
        <ele>122</ele>
        <time>2024-10-31T08:34:50+01:00</time>
      </trkpt>
      <trkpt lat="43.86233" lon="1.81924">
        <ele>121</ele>
        <time>2024-10-31T08:35:45+01:00</time>
      </trkpt>
      <trkpt lat="43.86223" lon="1.81943">
        <ele>120</ele>
      </trkpt>
      <trkpt lat="43.86221" lon="1.81963">
        <ele>120</ele>
        <time>2024-10-31T08:36:05+01:00</time>
      </trkpt>
      <trkpt lat="43.86224" lon="1.81996">
        <ele>118</ele>
        <time>2024-10-31T08:36:25+01:00</time>
      </trkpt>
      <trkpt lat="43.86234" lon="1.82027">
        <ele>118</ele>
        <time>2024-10-31T08:36:45+01:00</time>
      </trkpt>
      <trkpt lat="43.86246" lon="1.82061">
        <ele>118</ele>
        <time>2024-10-31T08:37:10+01:00</time>
      </trkpt>
      <trkpt lat="43.86259" lon="1.82089">
        <ele>119</ele>
        <time>2024-10-31T08:37:30+01:00</time>
      </trkpt>
      <trkpt lat="43.86269" lon="1.82118">
        <ele>119</ele>
        <time>2024-10-31T08:37:50+01:00</time>
      </trkpt>
      <trkpt lat="43.86281" lon="1.82147">
        <ele>119</ele>
        <time>2024-10-31T08:38:10+01:00</time>
      </trkpt>
      <trkpt lat="43.86294" lon="1.82178">
        <ele>119</ele>
        <time>2024-10-31T08:38:35+01:00</time>
      </trkpt>
      <trkpt lat="43.86306" lon="1.82205">
        <ele>119</ele>
        <time>2024-10-31T08:39:00+01:00</time>
      </trkpt>
      <trkpt lat="43.86319" lon="1.82232">
        <ele>118</ele>
        <time>2024-10-31T08:39:20+01:00</time>
      </trkpt>
      <trkpt lat="43.86339" lon="1.82238">
        <ele>122</ele>
        <time>2024-10-31T08:39:45+01:00</time>
      </trkpt>
      <trkpt lat="43.86366" lon="1.82218">
        <ele>125</ele>
        <time>2024-10-31T08:40:10+01:00</time>
      </trkpt>
      <trkpt lat="43.86387" lon="1.82198">
        <ele>125</ele>
        <time>2024-10-31T08:40:30+01:00</time>
      </trkpt>
      <trkpt lat="43.86423" lon="1.82169">
        <ele>125</ele>
        <time>2024-10-31T08:40:50+01:00</time>
      </trkpt>
      <trkpt lat="43.86433" lon="1.82187">
        <ele>125</ele>
        <time>2024-10-31T08:41:20+01:00</time>
      </trkpt>
      <trkpt lat="43.86445" lon="1.82218">
        <ele>126</ele>
        <time>2024-10-31T08:41:40+01:00</time>
      </trkpt>
      <trkpt lat="43.8646" lon="1.82242">
        <ele>126</ele>
        <time>2024-10-31T08:42:00+01:00</time>
      </trkpt>
      <trkpt lat="43.86479" lon="1.82268">
        <ele>126</ele>
        <time>2024-10-31T08:42:20+01:00</time>
      </trkpt>
      <trkpt lat="43.86494" lon="1.82294">
        <ele>126</ele>
        <time>2024-10-31T08:42:40+01:00</time>
      </trkpt>
      <trkpt lat="43.86512" lon="1.82321">
        <ele>126</ele>
        <time>2024-10-31T08:43:05+01:00</time>
      </trkpt>
      <trkpt lat="43.86533" lon="1.82345">
        <ele>127</ele>
        <time>2024-10-31T08:43:30+01:00</time>
      </trkpt>
      <trkpt lat="43.86556" lon="1.82364">
        <ele>127</ele>
        <time>2024-10-31T08:43:50+01:00</time>
      </trkpt>
      <trkpt lat="43.86574" lon="1.82382">
        <ele>127</ele>
        <time>2024-10-31T08:44:15+01:00</time>
      </trkpt>
      <trkpt lat="43.86589" lon="1.82409">
        <ele>127</ele>
        <time>2024-10-31T08:44:45+01:00</time>
      </trkpt>
      <trkpt lat="43.866" lon="1.82442">
        <ele>127</ele>
        <time>2024-10-31T08:45:05+01:00</time>
      </trkpt>
      <trkpt lat="43.86606" lon="1.82473">
        <ele>127</ele>
        <time>2024-10-31T08:45:25+01:00</time>
      </trkpt>
      <trkpt lat="43.86614" lon="1.82505">
        <ele>127</ele>
        <time>2024-10-31T08:45:50+01:00</time>
      </trkpt>
      <trkpt lat="43.86624" lon="1.82539">
        <ele>127</ele>
        <time>2024-10-31T08:46:15+01:00</time>
      </trkpt>
      <trkpt lat="43.86634" lon="1.82568">
        <ele>127</ele>
        <time>2024-10-31T08:46:35+01:00</time>
      </trkpt>
      <trkpt lat="43.86648" lon="1.82594">
        <ele>127</ele>
        <time>2024-10-31T08:46:55+01:00</time>
      </trkpt>
      <trkpt lat="43.86663" lon="1.82625">
        <ele>127</ele>
        <time>2024-10-31T08:47:20+01:00</time>
      </trkpt>
      <trkpt lat="43.86677" lon="1.82652">
        <ele>127</ele>
        <time>2024-10-31T08:47:40+01:00</time>
      </trkpt>
      <trkpt lat="43.86691" lon="1.82678">
        <ele>127</ele>
        <time>2024-10-31T08:48:00+01:00</time>
      </trkpt>
      <trkpt lat="43.86709" lon="1.82701">
        <ele>127</ele>
        <time>2024-10-31T08:48:20+01:00</time>
      </trkpt>
      <trkpt lat="43.86726" lon="1.82723">
        <ele>127</ele>
        <time>2024-10-31T08:48:40+01:00</time>
      </trkpt>
      <trkpt lat="43.86741" lon="1.82746">
        <ele>127</ele>
        <time>2024-10-31T08:49:00+01:00</time>
      </trkpt>
      <trkpt lat="43.86761" lon="1.82769">
        <ele>127</ele>
        <time>2024-10-31T08:49:20+01:00</time>
      </trkpt>
      <trkpt lat="43.86778" lon="1.82793">
        <ele>127</ele>
        <time>2024-10-31T08:49:40+01:00</time>
      </trkpt>
      <trkpt lat="43.86793" lon="1.82816">
        <ele>127</ele>
        <time>2024-10-31T08:50:00+01:00</time>
      </trkpt>
      <trkpt lat="43.8681" lon="1.82839">
        <ele>127</ele>
        <time>2024-10-31T08:50:20+01:00</time>
      </trkpt>
      <trkpt lat="43.86829" lon="1.82858">
        <ele>127</ele>
        <time>2024-10-31T08:50:40+01:00</time>
      </trkpt>
      <trkpt lat="43.8685" lon="1.82885">
        <ele>127</ele>
        <time>2024-10-31T08:51:05+01:00</time>
      </trkpt>
      <trkpt lat="43.86869" lon="1.82906">
        <ele>126</ele>
        <time>2024-10-31T08:51:25+01:00</time>
      </trkpt>
      <trkpt lat="43.86883" lon="1.82925">
        <ele>126</ele>
        <time>2024-10-31T08:51:50+01:00</time>
      </trkpt>
      <trkpt lat="43.86906" lon="1.82939">
        <ele>126</ele>
        <time>2024-10-31T08:52:15+01:00</time>
      </trkpt>
      <trkpt lat="43.86926" lon="1.82926">
        <ele>126</ele>
        <time>2024-10-31T08:55:10+01:00</time>
      </trkpt>
      <trkpt lat="43.86938" lon="1.8295">
        <ele>125</ele>
        <time>2024-10-31T08:55:55+01:00</time>
      </trkpt>
      <trkpt lat="43.86957" lon="1.82974">
        <ele>124</ele>
        <time>2024-10-31T08:56:40+01:00</time>
      </trkpt>
      <trkpt lat="43.86971" lon="1.83">
        <ele>123</ele>
        <time>2024-10-31T08:57:45+01:00</time>
      </trkpt>
      <trkpt lat="43.86983" lon="1.83016">
        <ele>123</ele>
        <time>2024-10-31T08:58:10+01:00</time>
      </trkpt>
      <trkpt lat="43.87001" lon="1.83065">
        <ele>125</ele>
        <time>2024-10-31T08:58:50+01:00</time>
      </trkpt>
      <trkpt lat="43.87015" lon="1.83095">
        <ele>125</ele>
        <time>2024-10-31T08:59:10+01:00</time>
      </trkpt>
      <trkpt lat="43.8703" lon="1.83128">
        <ele>126</ele>
        <time>2024-10-31T08:59:30+01:00</time>
      </trkpt>
      <trkpt lat="43.87042" lon="1.83162">
        <ele>126</ele>
        <time>2024-10-31T08:59:50+01:00</time>
      </trkpt>
      <trkpt lat="43.87054" lon="1.8319">
        <ele>126</ele>
        <time>2024-10-31T09:00:10+01:00</time>
      </trkpt>
      <trkpt lat="43.87068" lon="1.8322">
        <ele>127</ele>
        <time>2024-10-31T09:00:30+01:00</time>
      </trkpt>
      <trkpt lat="43.8708" lon="1.83254">
        <ele>127</ele>
        <time>2024-10-31T09:00:55+01:00</time>
      </trkpt>
      <trkpt lat="43.87093" lon="1.83283">
        <ele>127</ele>
        <time>2024-10-31T09:01:15+01:00</time>
      </trkpt>
      <trkpt lat="43.87108" lon="1.8331">
        <ele>127</ele>
        <time>2024-10-31T09:01:35+01:00</time>
      </trkpt>
      <trkpt lat="43.8712" lon="1.83342">
        <ele>127</ele>
        <time>2024-10-31T09:01:55+01:00</time>
      </trkpt>
      <trkpt lat="43.87133" lon="1.83375">
        <ele>127</ele>
        <time>2024-10-31T09:02:20+01:00</time>
      </trkpt>
      <trkpt lat="43.8715" lon="1.83411">
        <ele>127</ele>
        <time>2024-10-31T09:02:40+01:00</time>
      </trkpt>
      <trkpt lat="43.87126" lon="1.83427">
        <ele>127</ele>
        <time>2024-10-31T09:03:05+01:00</time>
      </trkpt>
      <trkpt lat="43.871" lon="1.83441">
        <ele>127</ele>
        <time>2024-10-31T09:03:30+01:00</time>
      </trkpt>
      <trkpt lat="43.87074" lon="1.83451">
        <ele>127</ele>
        <time>2024-10-31T09:03:50+01:00</time>
      </trkpt>
      <trkpt lat="43.87051" lon="1.83459">
        <ele>127</ele>
        <time>2024-10-31T09:04:10+01:00</time>
      </trkpt>
      <trkpt lat="43.87032" lon="1.83474">
        <ele>125</ele>
        <time>2024-10-31T09:04:35+01:00</time>
      </trkpt>
      <trkpt lat="43.87029" lon="1.83523">
        <ele>125</ele>
        <time>2024-10-31T09:05:00+01:00</time>
      </trkpt>
      <trkpt lat="43.87027" lon="1.83554">
        <ele>124</ele>
        <time>2024-10-31T09:05:25+01:00</time>
      </trkpt>
      <trkpt lat="43.87027" lon="1.83588">
        <ele>123</ele>
        <time>2024-10-31T09:05:40+01:00</time>
      </trkpt>
      <trkpt lat="43.8703" lon="1.83627">
        <ele>123</ele>
        <time>2024-10-31T09:06:00+01:00</time>
      </trkpt>
      <trkpt lat="43.87035" lon="1.83661">
        <ele>122</ele>
        <time>2024-10-31T09:06:25+01:00</time>
      </trkpt>
      <trkpt lat="43.8704" lon="1.83698">
        <ele>122</ele>
        <time>2024-10-31T09:06:50+01:00</time>
      </trkpt>
      <trkpt lat="43.87045" lon="1.83735">
        <ele>122</ele>
        <time>2024-10-31T09:07:15+01:00</time>
      </trkpt>
      <trkpt lat="43.87053" lon="1.83771">
        <ele>123</ele>
        <time>2024-10-31T09:07:40+01:00</time>
      </trkpt>
      <trkpt lat="43.87059" lon="1.83808">
        <ele>122</ele>
        <time>2024-10-31T09:08:05+01:00</time>
      </trkpt>
      <trkpt lat="43.87067" lon="1.83832">
        <ele>122</ele>
        <time>2024-10-31T09:08:25+01:00</time>
      </trkpt>
      <trkpt lat="43.87075" lon="1.83868">
        <ele>123</ele>
        <time>2024-10-31T09:08:45+01:00</time>
      </trkpt>
      <trkpt lat="43.87082" lon="1.83904">
        <ele>123</ele>
        <time>2024-10-31T09:09:05+01:00</time>
      </trkpt>
      <trkpt lat="43.87087" lon="1.83936">
        <ele>123</ele>
        <time>2024-10-31T09:09:25+01:00</time>
      </trkpt>
      <trkpt lat="43.87093" lon="1.83969">
        <ele>123</ele>
        <time>2024-10-31T09:09:45+01:00</time>
      </trkpt>
      <trkpt lat="43.871" lon="1.84003">
        <ele>124</ele>
        <time>2024-10-31T09:10:05+01:00</time>
      </trkpt>
      <trkpt lat="43.87104" lon="1.84038">
        <ele>124</ele>
        <time>2024-10-31T09:10:25+01:00</time>
      </trkpt>
      <trkpt lat="43.87111" lon="1.8407">
        <ele>125</ele>
        <time>2024-10-31T09:10:45+01:00</time>
      </trkpt>
      <trkpt lat="43.87117" lon="1.84102">
        <ele>125</ele>
        <time>2024-10-31T09:11:10+01:00</time>
      </trkpt>
      <trkpt lat="43.87124" lon="1.84142">
        <ele>125</ele>
        <time>2024-10-31T09:11:35+01:00</time>
      </trkpt>
      <trkpt lat="43.87132" lon="1.84176">
        <ele>125</ele>
        <time>2024-10-31T09:12:00+01:00</time>
      </trkpt>
      <trkpt lat="43.8714" lon="1.84211">
        <ele>125</ele>
        <time>2024-10-31T09:12:25+01:00</time>
      </trkpt>
      <trkpt lat="43.87147" lon="1.84248">
        <ele>125</ele>
        <time>2024-10-31T09:13:15+01:00</time>
      </trkpt>
      <trkpt lat="43.87157" lon="1.8428">
        <ele>125</ele>
        <time>2024-10-31T09:13:35+01:00</time>
      </trkpt>
      <trkpt lat="43.87168" lon="1.84313">
        <ele>125</ele>
        <time>2024-10-31T09:14:00+01:00</time>
      </trkpt>
      <trkpt lat="43.87179" lon="1.84357">
        <ele>126</ele>
        <time>2024-10-31T09:14:25+01:00</time>
      </trkpt>
      <trkpt lat="43.87181" lon="1.84386">
        <ele>127</ele>
        <time>2024-10-31T09:14:45+01:00</time>
      </trkpt>
      <trkpt lat="43.87191" lon="1.84416">
        <ele>127</ele>
        <time>2024-10-31T09:15:15+01:00</time>
      </trkpt>
      <trkpt lat="43.87199" lon="1.84452">
        <ele>127</ele>
        <time>2024-10-31T09:16:15+01:00</time>
      </trkpt>
      <trkpt lat="43.87209" lon="1.84484">
        <ele>128</ele>
        <time>2024-10-31T09:16:35+01:00</time>
      </trkpt>
      <trkpt lat="43.87219" lon="1.8452">
        <ele>128</ele>
        <time>2024-10-31T09:17:05+01:00</time>
      </trkpt>
      <trkpt lat="43.87228" lon="1.84551">
        <ele>128</ele>
        <time>2024-10-31T09:17:25+01:00</time>
      </trkpt>
      <trkpt lat="43.87238" lon="1.84587">
        <ele>128</ele>
        <time>2024-10-31T09:17:50+01:00</time>
      </trkpt>
      <trkpt lat="43.87249" lon="1.84624">
        <ele>129</ele>
        <time>2024-10-31T09:18:25+01:00</time>
      </trkpt>
      <trkpt lat="43.87256" lon="1.84655">
        <ele>129</ele>
        <time>2024-10-31T09:18:50+01:00</time>
      </trkpt>
      <trkpt lat="43.87268" lon="1.84695">
        <ele>129</ele>
      </trkpt>
      <trkpt lat="43.87241" lon="1.84707">
        <ele>128</ele>
        <time>2024-10-31T09:19:15+01:00</time>
      </trkpt>
      <trkpt lat="43.87269" lon="1.847">
        <ele>129</ele>
        <time>2024-10-31T09:21:25+01:00</time>
      </trkpt>
      <trkpt lat="43.8728" lon="1.84749">
        <ele>128</ele>
        <time>2024-10-31T09:21:45+01:00</time>
      </trkpt>
      <trkpt lat="43.87292" lon="1.84789">
        <ele>128</ele>
        <time>2024-10-31T09:22:05+01:00</time>
      </trkpt>
      <trkpt lat="43.87298" lon="1.84818">
        <ele>127</ele>
        <time>2024-10-31T09:22:25+01:00</time>
      </trkpt>
      <trkpt lat="43.87307" lon="1.84848">
        <ele>127</ele>
        <time>2024-10-31T09:22:45+01:00</time>
      </trkpt>
      <trkpt lat="43.87315" lon="1.84876">
        <ele>126</ele>
        <time>2024-10-31T09:23:05+01:00</time>
      </trkpt>
      <trkpt lat="43.87326" lon="1.84916">
        <ele>126</ele>
        <time>2024-10-31T09:23:25+01:00</time>
      </trkpt>
      <trkpt lat="43.87332" lon="1.84943">
        <ele>126</ele>
        <time>2024-10-31T09:23:50+01:00</time>
      </trkpt>
      <trkpt lat="43.87342" lon="1.84974">
        <ele>126</ele>
        <time>2024-10-31T09:24:15+01:00</time>
      </trkpt>
      <trkpt lat="43.87353" lon="1.85007">
        <ele>127</ele>
        <time>2024-10-31T09:24:45+01:00</time>
      </trkpt>
      <trkpt lat="43.87367" lon="1.85035">
        <ele>127</ele>
        <time>2024-10-31T09:25:20+01:00</time>
      </trkpt>
      <trkpt lat="43.87385" lon="1.85062">
        <ele>128</ele>
      </trkpt>
      <trkpt lat="43.87374" lon="1.85078">
        <ele>127</ele>
        <time>2024-10-31T09:26:00+01:00</time>
      </trkpt>
      <trkpt lat="43.87402" lon="1.85064">
        <ele>128</ele>
        <time>2024-10-31T09:28:30+01:00</time>
      </trkpt>
      <trkpt lat="43.87427" lon="1.8505">
        <ele>129</ele>
        <time>2024-10-31T09:28:55+01:00</time>
      </trkpt>
      <trkpt lat="43.87448" lon="1.85038">
        <ele>130</ele>
        <time>2024-10-31T09:29:15+01:00</time>
      </trkpt>
      <trkpt lat="43.8747" lon="1.85025">
        <ele>130</ele>
        <time>2024-10-31T09:29:35+01:00</time>
      </trkpt>
      <trkpt lat="43.87497" lon="1.85012">
        <ele>129</ele>
        <time>2024-10-31T09:29:55+01:00</time>
      </trkpt>
      <trkpt lat="43.87512" lon="1.85005">
        <ele>130</ele>
        <time>2024-10-31T09:30:15+01:00</time>
      </trkpt>
      <trkpt lat="43.87538" lon="1.84991">
        <ele>130</ele>
        <time>2024-10-31T09:30:40+01:00</time>
      </trkpt>
      <trkpt lat="43.87562" lon="1.8498">
        <ele>129</ele>
        <time>2024-10-31T09:31:00+01:00</time>
      </trkpt>
      <trkpt lat="43.87588" lon="1.84964">
        <ele>130</ele>
        <time>2024-10-31T09:31:20+01:00</time>
      </trkpt>
      <trkpt lat="43.87611" lon="1.84951">
        <ele>130</ele>
        <time>2024-10-31T09:31:40+01:00</time>
      </trkpt>
      <trkpt lat="43.87632" lon="1.84938">
        <ele>130</ele>
        <time>2024-10-31T09:32:00+01:00</time>
      </trkpt>
      <trkpt lat="43.87657" lon="1.8493">
        <ele>130</ele>
        <time>2024-10-31T09:32:25+01:00</time>
      </trkpt>
      <trkpt lat="43.87678" lon="1.84914">
        <ele>130</ele>
        <time>2024-10-31T09:32:45+01:00</time>
      </trkpt>
      <trkpt lat="43.87702" lon="1.84903">
        <ele>131</ele>
        <time>2024-10-31T09:33:05+01:00</time>
      </trkpt>
      <trkpt lat="43.87725" lon="1.8489">
        <ele>131</ele>
        <time>2024-10-31T09:33:25+01:00</time>
      </trkpt>
      <trkpt lat="43.87773" lon="1.84871">
        <ele>132</ele>
        <time>2024-10-31T09:33:45+01:00</time>
      </trkpt>
      <trkpt lat="43.87779" lon="1.84886">
        <ele>132</ele>
        <time>2024-10-31T09:34:20+01:00</time>
      </trkpt>
      <trkpt lat="43.87792" lon="1.8492">
        <ele>132</ele>
        <time>2024-10-31T09:34:40+01:00</time>
      </trkpt>
      <trkpt lat="43.87805" lon="1.84949">
        <ele>132</ele>
        <time>2024-10-31T09:35:00+01:00</time>
      </trkpt>
      <trkpt lat="43.87818" lon="1.84978">
        <ele>132</ele>
        <time>2024-10-31T09:35:20+01:00</time>
      </trkpt>
      <trkpt lat="43.87832" lon="1.85009">
        <ele>132</ele>
        <time>2024-10-31T09:35:40+01:00</time>
      </trkpt>
      <trkpt lat="43.87846" lon="1.85038">
        <ele>132</ele>
        <time>2024-10-31T09:36:05+01:00</time>
      </trkpt>
      <trkpt lat="43.87857" lon="1.85068">
        <ele>132</ele>
        <time>2024-10-31T09:36:25+01:00</time>
      </trkpt>
      <trkpt lat="43.87862" lon="1.85048">
        <ele>132</ele>
      </trkpt>
      <trkpt lat="43.87873" lon="1.85041">
        <ele>132</ele>
        <time>2024-10-31T09:38:05+01:00</time>
      </trkpt>
      <trkpt lat="43.87899" lon="1.85042">
        <ele>132</ele>
        <time>2024-10-31T09:38:45+01:00</time>
      </trkpt>
      <trkpt lat="43.87918" lon="1.85037">
        <ele>132</ele>
        <time>2024-10-31T09:39:05+01:00</time>
      </trkpt>
      <trkpt lat="43.87945" lon="1.85032">
        <ele>132</ele>
        <time>2024-10-31T09:39:15+01:00</time>
      </trkpt>
      <trkpt lat="43.87973" lon="1.85028">
        <ele>132</ele>
        <time>2024-10-31T09:39:40+01:00</time>
      </trkpt>
      <trkpt lat="43.87995" lon="1.85022">
        <ele>132</ele>
        <time>2024-10-31T09:39:50+01:00</time>
      </trkpt>
      <trkpt lat="43.88018" lon="1.85015">
        <ele>132</ele>
        <time>2024-10-31T09:40:00+01:00</time>
      </trkpt>
      <trkpt lat="43.88041" lon="1.85012">
        <ele>132</ele>
        <time>2024-10-31T09:40:20+01:00</time>
      </trkpt>
      <trkpt lat="43.88066" lon="1.85006">
        <ele>132</ele>
        <time>2024-10-31T09:40:45+01:00</time>
      </trkpt>
      <trkpt lat="43.8809" lon="1.85005">
        <ele>132</ele>
        <time>2024-10-31T09:41:05+01:00</time>
      </trkpt>
      <trkpt lat="43.88115" lon="1.84997">
        <ele>132</ele>
        <time>2024-10-31T09:41:30+01:00</time>
      </trkpt>
      <trkpt lat="43.88141" lon="1.84992">
        <ele>132</ele>
        <time>2024-10-31T09:41:50+01:00</time>
      </trkpt>
      <trkpt lat="43.88167" lon="1.84989">
        <ele>132</ele>
        <time>2024-10-31T09:42:10+01:00</time>
      </trkpt>
      <trkpt lat="43.88192" lon="1.84985">
        <ele>132</ele>
        <time>2024-10-31T09:42:30+01:00</time>
      </trkpt>
      <trkpt lat="43.88219" lon="1.84978">
        <ele>132</ele>
        <time>2024-10-31T09:43:00+01:00</time>
      </trkpt>
      <trkpt lat="43.88242" lon="1.84973">
        <ele>132</ele>
        <time>2024-10-31T09:43:20+01:00</time>
      </trkpt>
      <trkpt lat="43.88271" lon="1.84968">
        <ele>132</ele>
        <time>2024-10-31T09:43:50+01:00</time>
      </trkpt>
      <trkpt lat="43.88298" lon="1.84962">
        <ele>132</ele>
        <time>2024-10-31T09:44:10+01:00</time>
      </trkpt>
      <trkpt lat="43.88323" lon="1.84956">
        <ele>132</ele>
        <time>2024-10-31T09:44:30+01:00</time>
      </trkpt>
      <trkpt lat="43.88351" lon="1.84948">
        <ele>132</ele>
        <time>2024-10-31T09:44:55+01:00</time>
      </trkpt>
      <trkpt lat="43.88377" lon="1.84942">
        <ele>132</ele>
        <time>2024-10-31T09:45:15+01:00</time>
      </trkpt>
      <trkpt lat="43.88402" lon="1.84933">
        <ele>132</ele>
        <time>2024-10-31T09:45:35+01:00</time>
      </trkpt>
      <trkpt lat="43.88428" lon="1.84928">
        <ele>132</ele>
        <time>2024-10-31T09:45:55+01:00</time>
      </trkpt>
      <trkpt lat="43.88455" lon="1.84923">
        <ele>132</ele>
        <time>2024-10-31T09:46:25+01:00</time>
      </trkpt>
      <trkpt lat="43.88484" lon="1.84925">
        <ele>132</ele>
        <time>2024-10-31T09:46:45+01:00</time>
      </trkpt>
      <trkpt lat="43.8851" lon="1.84927">
        <ele>133</ele>
        <time>2024-10-31T09:47:05+01:00</time>
      </trkpt>
      <trkpt lat="43.88524" lon="1.84929">
        <ele>134</ele>
      </trkpt>
      <trkpt lat="43.88526" lon="1.84903">
        <ele>134</ele>
        <time>2024-10-31T09:47:30+01:00</time>
      </trkpt>
      <trkpt lat="43.88525" lon="1.84879">
        <ele>134</ele>
        <time>2024-10-31T09:48:05+01:00</time>
      </trkpt>
      <trkpt lat="43.88531" lon="1.84849">
        <ele>134</ele>
      </trkpt>
      <trkpt lat="43.8854" lon="1.84842">
        <ele>135</ele>
        <time>2024-10-31T09:48:30+01:00</time>
      </trkpt>
      <trkpt lat="43.88558" lon="1.8484">
        <ele>136</ele>
        <time>2024-10-31T09:49:10+01:00</time>
      </trkpt>
      <trkpt lat="43.88588" lon="1.84846">
        <ele>137</ele>
        <time>2024-10-31T09:49:45+01:00</time>
      </trkpt>
      <trkpt lat="43.88614" lon="1.84854">
        <ele>137</ele>
        <time>2024-10-31T09:50:05+01:00</time>
      </trkpt>
      <trkpt lat="43.88639" lon="1.84856">
        <ele>137</ele>
        <time>2024-10-31T09:50:25+01:00</time>
      </trkpt>
      <trkpt lat="43.88664" lon="1.84851">
        <ele>137</ele>
        <time>2024-10-31T09:50:45+01:00</time>
      </trkpt>
      <trkpt lat="43.88687" lon="1.84844">
        <ele>137</ele>
        <time>2024-10-31T09:51:05+01:00</time>
      </trkpt>
      <trkpt lat="43.88709" lon="1.84835">
        <ele>137</ele>
        <time>2024-10-31T09:51:25+01:00</time>
      </trkpt>
      <trkpt lat="43.88732" lon="1.84826">
        <ele>137</ele>
        <time>2024-10-31T09:51:45+01:00</time>
      </trkpt>
      <trkpt lat="43.88757" lon="1.84817">
        <ele>137</ele>
        <time>2024-10-31T09:52:05+01:00</time>
      </trkpt>
      <trkpt lat="43.88781" lon="1.84807">
        <ele>137</ele>
        <time>2024-10-31T09:52:25+01:00</time>
      </trkpt>
      <trkpt lat="43.88806" lon="1.84796">
        <ele>137</ele>
        <time>2024-10-31T09:52:45+01:00</time>
      </trkpt>
      <trkpt lat="43.8883" lon="1.84786">
        <ele>137</ele>
        <time>2024-10-31T09:53:05+01:00</time>
      </trkpt>
      <trkpt lat="43.88853" lon="1.84774">
        <ele>137</ele>
        <time>2024-10-31T09:53:35+01:00</time>
      </trkpt>
      <trkpt lat="43.88877" lon="1.84762">
        <ele>137</ele>
        <time>2024-10-31T09:53:55+01:00</time>
      </trkpt>
      <trkpt lat="43.88901" lon="1.84752">
        <ele>137</ele>
        <time>2024-10-31T09:54:15+01:00</time>
      </trkpt>
      <trkpt lat="43.88924" lon="1.8474">
        <ele>137</ele>
        <time>2024-10-31T09:54:35+01:00</time>
      </trkpt>
      <trkpt lat="43.88947" lon="1.84721">
        <ele>137</ele>
        <time>2024-10-31T09:55:00+01:00</time>
      </trkpt>
      <trkpt lat="43.88974" lon="1.84698">
        <ele>137</ele>
        <time>2024-10-31T09:55:25+01:00</time>
      </trkpt>
      <trkpt lat="43.88996" lon="1.84678">
        <ele>137</ele>
        <time>2024-10-31T09:55:50+01:00</time>
      </trkpt>
      <trkpt lat="43.89017" lon="1.84657">
        <ele>137</ele>
        <time>2024-10-31T09:56:05+01:00</time>
      </trkpt>
      <trkpt lat="43.89035" lon="1.84638">
        <ele>137</ele>
        <time>2024-10-31T09:56:35+01:00</time>
      </trkpt>
      <trkpt lat="43.89057" lon="1.84614">
        <ele>137</ele>
        <time>2024-10-31T09:57:15+01:00</time>
      </trkpt>
      <trkpt lat="43.89076" lon="1.84592">
        <ele>137</ele>
        <time>2024-10-31T09:57:35+01:00</time>
      </trkpt>
      <trkpt lat="43.89095" lon="1.84567">
        <ele>137</ele>
        <time>2024-10-31T09:58:00+01:00</time>
      </trkpt>
      <trkpt lat="43.89114" lon="1.84542">
        <ele>137</ele>
        <time>2024-10-31T09:58:20+01:00</time>
      </trkpt>
      <trkpt lat="43.89129" lon="1.84514">
        <ele>137</ele>
        <time>2024-10-31T09:58:40+01:00</time>
      </trkpt>
      <trkpt lat="43.89143" lon="1.84484">
        <ele>137</ele>
        <time>2024-10-31T09:59:05+01:00</time>
      </trkpt>
      <trkpt lat="43.89158" lon="1.84457">
        <ele>137</ele>
        <time>2024-10-31T09:59:25+01:00</time>
      </trkpt>
      <trkpt lat="43.89172" lon="1.8443">
        <ele>137</ele>
        <time>2024-10-31T09:59:50+01:00</time>
      </trkpt>
      <trkpt lat="43.8921" lon="1.84398">
        <ele>137</ele>
        <time>2024-10-31T10:00:20+01:00</time>
      </trkpt>
      <trkpt lat="43.89214" lon="1.84376">
        <ele>137</ele>
        <time>2024-10-31T10:00:40+01:00</time>
      </trkpt>
      <trkpt lat="43.89216" lon="1.84347">
        <ele>137</ele>
        <time>2024-10-31T10:01:00+01:00</time>
      </trkpt>
      <trkpt lat="43.89232" lon="1.8433">
        <ele>137</ele>
        <time>2024-10-31T10:01:20+01:00</time>
      </trkpt>
      <trkpt lat="43.89251" lon="1.84323">
        <ele>137</ele>
        <time>2024-10-31T10:01:45+01:00</time>
      </trkpt>
      <trkpt lat="43.89271" lon="1.84313">
        <ele>137</ele>
        <time>2024-10-31T10:02:10+01:00</time>
      </trkpt>
      <trkpt lat="43.89289" lon="1.84305">
        <ele>137</ele>
        <time>2024-10-31T10:02:30+01:00</time>
      </trkpt>
      <trkpt lat="43.8932" lon="1.8429">
        <ele>138</ele>
        <time>2024-10-31T10:02:55+01:00</time>
      </trkpt>
      <trkpt lat="43.89342" lon="1.8428">
        <ele>138</ele>
        <time>2024-10-31T10:03:15+01:00</time>
      </trkpt>
      <trkpt lat="43.89366" lon="1.84269">
        <ele>138</ele>
        <time>2024-10-31T10:04:25+01:00</time>
      </trkpt>
      <trkpt lat="43.8939" lon="1.84254">
        <ele>139</ele>
        <time>2024-10-31T10:05:00+01:00</time>
      </trkpt>
      <trkpt lat="43.89418" lon="1.84233">
        <ele>140</ele>
        <time>2024-10-31T10:05:15+01:00</time>
      </trkpt>
      <trkpt lat="43.89443" lon="1.8422">
        <ele>140</ele>
        <time>2024-10-31T10:05:35+01:00</time>
      </trkpt>
      <trkpt lat="43.89467" lon="1.8421">
        <ele>140</ele>
        <time>2024-10-31T10:06:00+01:00</time>
      </trkpt>
      <trkpt lat="43.89491" lon="1.84196">
        <ele>141</ele>
        <time>2024-10-31T10:06:25+01:00</time>
      </trkpt>
      <trkpt lat="43.89516" lon="1.84183">
        <ele>142</ele>
        <time>2024-10-31T10:06:55+01:00</time>
      </trkpt>
      <trkpt lat="43.89537" lon="1.84173">
        <ele>142</ele>
        <time>2024-10-31T10:07:05+01:00</time>
      </trkpt>
      <trkpt lat="43.89563" lon="1.84159">
        <ele>142</ele>
        <time>2024-10-31T10:07:30+01:00</time>
      </trkpt>
      <trkpt lat="43.89585" lon="1.84146">
        <ele>143</ele>
        <time>2024-10-31T10:07:50+01:00</time>
      </trkpt>
      <trkpt lat="43.89603" lon="1.84137">
        <ele>144</ele>
      </trkpt>
      <trkpt lat="43.89598" lon="1.84121">
        <ele>144</ele>
        <time>2024-10-31T10:08:15+01:00</time>
      </trkpt>
      <trkpt lat="43.89586" lon="1.84083">
        <ele>144</ele>
        <time>2024-10-31T10:08:35+01:00</time>
      </trkpt>
      <trkpt lat="43.8958" lon="1.84054">
        <ele>144</ele>
        <time>2024-10-31T10:09:00+01:00</time>
      </trkpt>
      <trkpt lat="43.89568" lon="1.84021">
        <ele>144</ele>
        <time>2024-10-31T10:09:35+01:00</time>
      </trkpt>
      <trkpt lat="43.89558" lon="1.83988">
        <ele>144</ele>
        <time>2024-10-31T10:10:15+01:00</time>
      </trkpt>
      <trkpt lat="43.8955" lon="1.83957">
        <ele>144</ele>
        <time>2024-10-31T10:10:35+01:00</time>
      </trkpt>
      <trkpt lat="43.89545" lon="1.83926">
        <ele>144</ele>
        <time>2024-10-31T10:10:55+01:00</time>
      </trkpt>
      <trkpt lat="43.89537" lon="1.8389">
        <ele>143</ele>
        <time>2024-10-31T10:11:20+01:00</time>
      </trkpt>
      <trkpt lat="43.89528" lon="1.83857">
        <ele>143</ele>
        <time>2024-10-31T10:11:40+01:00</time>
      </trkpt>
      <trkpt lat="43.89515" lon="1.83824">
        <ele>142</ele>
        <time>2024-10-31T10:12:00+01:00</time>
      </trkpt>
      <trkpt lat="43.89505" lon="1.83795">
        <ele>142</ele>
        <time>2024-10-31T10:12:20+01:00</time>
      </trkpt>
      <trkpt lat="43.89506" lon="1.83758">
        <ele>143</ele>
        <time>2024-10-31T10:12:45+01:00</time>
      </trkpt>
      <trkpt lat="43.89506" lon="1.83727">
        <ele>143</ele>
        <time>2024-10-31T10:13:05+01:00</time>
      </trkpt>
      <trkpt lat="43.89509" lon="1.83693">
        <ele>144</ele>
        <time>2024-10-31T10:13:25+01:00</time>
      </trkpt>
      <trkpt lat="43.89515" lon="1.83663">
        <ele>145</ele>
        <time>2024-10-31T10:13:50+01:00</time>
      </trkpt>
      <trkpt lat="43.8951" lon="1.83647">
        <ele>144</ele>
      </trkpt>
      <trkpt lat="43.89507" lon="1.83623">
        <ele>144</ele>
        <time>2024-10-31T10:14:10+01:00</time>
      </trkpt>
      <trkpt lat="43.89508" lon="1.83595">
        <ele>145</ele>
        <time>2024-10-31T10:14:30+01:00</time>
      </trkpt>
      <trkpt lat="43.89504" lon="1.83556">
        <ele>144</ele>
        <time>2024-10-31T10:14:55+01:00</time>
      </trkpt>
      <trkpt lat="43.89499" lon="1.8352">
        <ele>144</ele>
        <time>2024-10-31T10:15:20+01:00</time>
      </trkpt>
      <trkpt lat="43.89496" lon="1.83485">
        <ele>144</ele>
        <time>2024-10-31T10:15:45+01:00</time>
      </trkpt>
      <trkpt lat="43.89493" lon="1.83447">
        <ele>143</ele>
        <time>2024-10-31T10:16:05+01:00</time>
      </trkpt>
      <trkpt lat="43.8949" lon="1.83412">
        <ele>142</ele>
        <time>2024-10-31T10:16:30+01:00</time>
      </trkpt>
      <trkpt lat="43.89492" lon="1.83379">
        <ele>142</ele>
        <time>2024-10-31T10:16:50+01:00</time>
      </trkpt>
      <trkpt lat="43.89503" lon="1.83343">
        <ele>142</ele>
        <time>2024-10-31T10:17:20+01:00</time>
      </trkpt>
      <trkpt lat="43.89508" lon="1.8331">
        <ele>142</ele>
        <time>2024-10-31T10:17:45+01:00</time>
      </trkpt>
      <trkpt lat="43.89519" lon="1.83273">
        <ele>143</ele>
        <time>2024-10-31T10:18:15+01:00</time>
      </trkpt>
      <trkpt lat="43.89514" lon="1.83242">
        <ele>143</ele>
        <time>2024-10-31T10:18:45+01:00</time>
      </trkpt>
      <trkpt lat="43.89505" lon="1.83208">
        <ele>143</ele>
        <time>2024-10-31T10:19:10+01:00</time>
      </trkpt>
      <trkpt lat="43.89495" lon="1.83178">
        <ele>143</ele>
        <time>2024-10-31T10:19:30+01:00</time>
      </trkpt>
      <trkpt lat="43.89486" lon="1.83145">
        <ele>143</ele>
        <time>2024-10-31T10:19:50+01:00</time>
      </trkpt>
      <trkpt lat="43.89476" lon="1.83113">
        <ele>143</ele>
        <time>2024-10-31T10:20:15+01:00</time>
      </trkpt>
      <trkpt lat="43.89472" lon="1.83083">
        <ele>143</ele>
        <time>2024-10-31T10:20:40+01:00</time>
      </trkpt>
      <trkpt lat="43.89467" lon="1.83043">
        <ele>143</ele>
        <time>2024-10-31T10:21:15+01:00</time>
      </trkpt>
      <trkpt lat="43.89453" lon="1.8301">
        <ele>143</ele>
        <time>2024-10-31T10:21:35+01:00</time>
      </trkpt>
      <trkpt lat="43.89442" lon="1.82982">
        <ele>143</ele>
        <time>2024-10-31T10:21:55+01:00</time>
      </trkpt>
      <trkpt lat="43.89429" lon="1.82954">
        <ele>143</ele>
        <time>2024-10-31T10:22:15+01:00</time>
      </trkpt>
      <trkpt lat="43.89421" lon="1.8292">
        <ele>143</ele>
        <time>2024-10-31T10:22:40+01:00</time>
      </trkpt>
      <trkpt lat="43.89415" lon="1.82886">
        <ele>144</ele>
        <time>2024-10-31T10:23:10+01:00</time>
      </trkpt>
      <trkpt lat="43.8941" lon="1.82851">
        <ele>144</ele>
        <time>2024-10-31T10:23:35+01:00</time>
      </trkpt>
      <trkpt lat="43.89402" lon="1.82813">
        <ele>144</ele>
        <time>2024-10-31T10:24:05+01:00</time>
      </trkpt>
      <trkpt lat="43.89393" lon="1.8278">
        <ele>144</ele>
        <time>2024-10-31T10:24:20+01:00</time>
      </trkpt>
      <trkpt lat="43.89388" lon="1.82748">
        <ele>145</ele>
        <time>2024-10-31T10:24:40+01:00</time>
      </trkpt>
      <trkpt lat="43.89381" lon="1.82718">
        <ele>145</ele>
        <time>2024-10-31T10:25:00+01:00</time>
      </trkpt>
      <trkpt lat="43.89377" lon="1.82684">
        <ele>145</ele>
        <time>2024-10-31T10:25:25+01:00</time>
      </trkpt>
      <trkpt lat="43.89376" lon="1.82652">
        <ele>145</ele>
        <time>2024-10-31T10:26:15+01:00</time>
      </trkpt>
      <trkpt lat="43.89373" lon="1.82619">
        <ele>145</ele>
        <time>2024-10-31T10:26:30+01:00</time>
      </trkpt>
      <trkpt lat="43.89369" lon="1.82588">
        <ele>145</ele>
        <time>2024-10-31T10:26:45+01:00</time>
      </trkpt>
      <trkpt lat="43.8936" lon="1.82555">
        <ele>144</ele>
        <time>2024-10-31T10:27:05+01:00</time>
      </trkpt>
      <trkpt lat="43.89352" lon="1.82518">
        <ele>144</ele>
        <time>2024-10-31T10:27:25+01:00</time>
      </trkpt>
      <trkpt lat="43.89351" lon="1.82484">
        <ele>145</ele>
        <time>2024-10-31T10:27:50+01:00</time>
      </trkpt>
      <trkpt lat="43.89347" lon="1.82447">
        <ele>146</ele>
        <time>2024-10-31T10:28:15+01:00</time>
      </trkpt>
      <trkpt lat="43.8934" lon="1.82414">
        <ele>146</ele>
        <time>2024-10-31T10:28:45+01:00</time>
      </trkpt>
      <trkpt lat="43.89332" lon="1.82383">
        <ele>146</ele>
        <time>2024-10-31T10:31:10+01:00</time>
      </trkpt>
      <trkpt lat="43.89323" lon="1.8235">
        <ele>147</ele>
        <time>2024-10-31T10:31:35+01:00</time>
      </trkpt>
      <trkpt lat="43.8931" lon="1.82316">
        <ele>147</ele>
        <time>2024-10-31T10:31:55+01:00</time>
      </trkpt>
      <trkpt lat="43.89293" lon="1.82281">
        <ele>147</ele>
        <time>2024-10-31T10:32:15+01:00</time>
      </trkpt>
      <trkpt lat="43.8928" lon="1.82254">
        <ele>147</ele>
        <time>2024-10-31T10:32:35+01:00</time>
      </trkpt>
      <trkpt lat="43.8927" lon="1.82221">
        <ele>147</ele>
        <time>2024-10-31T10:33:00+01:00</time>
      </trkpt>
      <trkpt lat="43.89259" lon="1.8219">
        <ele>147</ele>
        <time>2024-10-31T10:33:20+01:00</time>
      </trkpt>
      <trkpt lat="43.89246" lon="1.82156">
        <ele>147</ele>
        <time>2024-10-31T10:33:45+01:00</time>
      </trkpt>
      <trkpt lat="43.89232" lon="1.82129">
        <ele>146</ele>
        <time>2024-10-31T10:34:05+01:00</time>
      </trkpt>
      <trkpt lat="43.8922" lon="1.82101">
        <ele>146</ele>
        <time>2024-10-31T10:34:25+01:00</time>
      </trkpt>
      <trkpt lat="43.89204" lon="1.82071">
        <ele>146</ele>
        <time>2024-10-31T10:34:45+01:00</time>
      </trkpt>
      <trkpt lat="43.89188" lon="1.82045">
        <ele>145</ele>
        <time>2024-10-31T10:35:10+01:00</time>
      </trkpt>
      <trkpt lat="43.89172" lon="1.82018">
        <ele>145</ele>
        <time>2024-10-31T10:35:35+01:00</time>
      </trkpt>
      <trkpt lat="43.89155" lon="1.81987">
        <ele>145</ele>
        <time>2024-10-31T10:36:00+01:00</time>
      </trkpt>
      <trkpt lat="43.89141" lon="1.8196">
        <ele>146</ele>
        <time>2024-10-31T10:36:20+01:00</time>
      </trkpt>
      <trkpt lat="43.89127" lon="1.81926">
        <ele>147</ele>
        <time>2024-10-31T10:36:45+01:00</time>
      </trkpt>
      <trkpt lat="43.8911" lon="1.81897">
        <ele>147</ele>
        <time>2024-10-31T10:37:25+01:00</time>
      </trkpt>
      <trkpt lat="43.89093" lon="1.81862">
        <ele>148</ele>
        <time>2024-10-31T10:37:45+01:00</time>
      </trkpt>
      <trkpt lat="43.89077" lon="1.81839">
        <ele>148</ele>
        <time>2024-10-31T10:38:05+01:00</time>
      </trkpt>
      <trkpt lat="43.89064" lon="1.81812">
        <ele>148</ele>
        <time>2024-10-31T10:38:25+01:00</time>
      </trkpt>
      <trkpt lat="43.89053" lon="1.81782">
        <ele>149</ele>
        <time>2024-10-31T10:38:45+01:00</time>
      </trkpt>
      <trkpt lat="43.89046" lon="1.81752">
        <ele>149</ele>
        <time>2024-10-31T10:39:05+01:00</time>
      </trkpt>
      <trkpt lat="43.89041" lon="1.81714">
        <ele>150</ele>
        <time>2024-10-31T10:39:30+01:00</time>
      </trkpt>
      <trkpt lat="43.89028" lon="1.81681">
        <ele>150</ele>
        <time>2024-10-31T10:39:55+01:00</time>
      </trkpt>
      <trkpt lat="43.89013" lon="1.81649">
        <ele>149</ele>
        <time>2024-10-31T10:40:20+01:00</time>
      </trkpt>
      <trkpt lat="43.89" lon="1.8162">
        <ele>150</ele>
        <time>2024-10-31T10:40:40+01:00</time>
      </trkpt>
      <trkpt lat="43.88985" lon="1.8159">
        <ele>150</ele>
        <time>2024-10-31T10:41:05+01:00</time>
      </trkpt>
      <trkpt lat="43.88968" lon="1.8156">
        <ele>151</ele>
        <time>2024-10-31T10:41:30+01:00</time>
      </trkpt>
      <trkpt lat="43.8895" lon="1.81533">
        <ele>152</ele>
        <time>2024-10-31T10:41:55+01:00</time>
      </trkpt>
      <trkpt lat="43.88942" lon="1.81533">
        <ele>152</ele>
        <time>2024-10-31T10:42:20+01:00</time>
      </trkpt>
      <trkpt lat="43.88937" lon="1.81505">
        <ele>153</ele>
      </trkpt>
      <trkpt lat="43.88946" lon="1.8147">
        <ele>154</ele>
        <time>2024-10-31T10:42:50+01:00</time>
      </trkpt>
      <trkpt lat="43.88926" lon="1.81441">
        <ele>154</ele>
        <time>2024-10-31T10:43:15+01:00</time>
      </trkpt>
      <trkpt lat="43.88916" lon="1.8141">
        <ele>155</ele>
        <time>2024-10-31T10:43:35+01:00</time>
      </trkpt>
      <trkpt lat="43.88918" lon="1.81383">
        <ele>155</ele>
      </trkpt>
      <trkpt lat="43.88932" lon="1.8137">
        <ele>157</ele>
        <time>2024-10-31T10:44:00+01:00</time>
      </trkpt>
      <trkpt lat="43.88925" lon="1.81342">
        <ele>157</ele>
        <time>2024-10-31T10:44:30+01:00</time>
      </trkpt>
      <trkpt lat="43.88921" lon="1.81306">
        <ele>157</ele>
        <time>2024-10-31T10:44:50+01:00</time>
      </trkpt>
      <trkpt lat="43.88917" lon="1.81268">
        <ele>157</ele>
        <time>2024-10-31T10:45:30+01:00</time>
      </trkpt>
      <trkpt lat="43.88913" lon="1.81233">
        <ele>158</ele>
        <time>2024-10-31T10:45:50+01:00</time>
      </trkpt>
      <trkpt lat="43.88905" lon="1.81199">
        <ele>158</ele>
        <time>2024-10-31T10:46:10+01:00</time>
      </trkpt>
      <trkpt lat="43.88894" lon="1.81163">
        <ele>158</ele>
        <time>2024-10-31T10:46:50+01:00</time>
      </trkpt>
      <trkpt lat="43.8889" lon="1.81129">
        <ele>158</ele>
        <time>2024-10-31T10:47:15+01:00</time>
      </trkpt>
      <trkpt lat="43.88892" lon="1.81093">
        <ele>159</ele>
        <time>2024-10-31T10:47:35+01:00</time>
      </trkpt>
      <trkpt lat="43.88893" lon="1.81057">
        <ele>159</ele>
        <time>2024-10-31T10:48:10+01:00</time>
      </trkpt>
      <trkpt lat="43.88889" lon="1.8102">
        <ele>159</ele>
        <time>2024-10-31T10:48:35+01:00</time>
      </trkpt>
      <trkpt lat="43.88882" lon="1.80988">
        <ele>160</ele>
        <time>2024-10-31T10:48:55+01:00</time>
      </trkpt>
      <trkpt lat="43.8888" lon="1.80956">
        <ele>160</ele>
        <time>2024-10-31T10:49:15+01:00</time>
      </trkpt>
      <trkpt lat="43.88877" lon="1.8092">
        <ele>160</ele>
        <time>2024-10-31T10:49:40+01:00</time>
      </trkpt>
      <trkpt lat="43.88887" lon="1.80879">
        <ele>160</ele>
        <time>2024-10-31T10:50:15+01:00</time>
      </trkpt>
      <trkpt lat="43.8888" lon="1.8084">
        <ele>159</ele>
        <time>2024-10-31T10:50:40+01:00</time>
      </trkpt>
      <trkpt lat="43.88876" lon="1.80819">
        <ele>159</ele>
        <time>2024-10-31T10:52:20+01:00</time>
      </trkpt>
      <trkpt lat="43.88902" lon="1.80798">
        <ele>159</ele>
        <time>2024-10-31T10:52:45+01:00</time>
      </trkpt>
      <trkpt lat="43.88928" lon="1.80782">
        <ele>160</ele>
        <time>2024-10-31T10:53:05+01:00</time>
      </trkpt>
      <trkpt lat="43.88953" lon="1.80779">
        <ele>161</ele>
        <time>2024-10-31T10:53:25+01:00</time>
      </trkpt>
      <trkpt lat="43.88981" lon="1.80774">
        <ele>162</ele>
        <time>2024-10-31T10:53:50+01:00</time>
      </trkpt>
      <trkpt lat="43.89004" lon="1.80774">
        <ele>163</ele>
        <time>2024-10-31T10:54:10+01:00</time>
      </trkpt>
      <trkpt lat="43.8903" lon="1.80773">
        <ele>164</ele>
        <time>2024-10-31T10:54:30+01:00</time>
      </trkpt>
      <trkpt lat="43.89053" lon="1.80771">
        <ele>165</ele>
        <time>2024-10-31T10:54:50+01:00</time>
      </trkpt>
      <trkpt lat="43.89076" lon="1.80764">
        <ele>165</ele>
        <time>2024-10-31T10:55:10+01:00</time>
      </trkpt>
      <trkpt lat="43.89098" lon="1.80758">
        <ele>164</ele>
        <time>2024-10-31T10:55:30+01:00</time>
      </trkpt>
      <trkpt lat="43.89126" lon="1.8075">
        <ele>165</ele>
        <time>2024-10-31T10:55:50+01:00</time>
      </trkpt>
      <trkpt lat="43.89151" lon="1.80747">
        <ele>165</ele>
        <time>2024-10-31T10:56:15+01:00</time>
      </trkpt>
      <trkpt lat="43.89174" lon="1.80751">
        <ele>165</ele>
        <time>2024-10-31T10:56:40+01:00</time>
      </trkpt>
      <trkpt lat="43.89202" lon="1.80755">
        <ele>165</ele>
        <time>2024-10-31T10:57:05+01:00</time>
      </trkpt>
      <trkpt lat="43.89226" lon="1.80745">
        <ele>165</ele>
        <time>2024-10-31T10:57:25+01:00</time>
      </trkpt>
      <trkpt lat="43.89248" lon="1.80735">
        <ele>166</ele>
        <time>2024-10-31T10:57:45+01:00</time>
      </trkpt>
      <trkpt lat="43.89275" lon="1.80731">
        <ele>167</ele>
        <time>2024-10-31T10:58:10+01:00</time>
      </trkpt>
      <trkpt lat="43.89301" lon="1.80724">
        <ele>168</ele>
        <time>2024-10-31T10:58:35+01:00</time>
      </trkpt>
      <trkpt lat="43.89338" lon="1.80722">
        <ele>170</ele>
        <time>2024-10-31T10:59:05+01:00</time>
      </trkpt>
      <trkpt lat="43.89333" lon="1.80682">
        <ele>172</ele>
        <time>2024-10-31T11:00:15+01:00</time>
      </trkpt>
      <trkpt lat="43.8933" lon="1.8065">
        <ele>174</ele>
        <time>2024-10-31T11:00:35+01:00</time>
      </trkpt>
      <trkpt lat="43.89332" lon="1.80628">
        <ele>176</ele>
        <time>2024-10-31T11:01:00+01:00</time>
      </trkpt>
      <trkpt lat="43.89359" lon="1.8059">
        <ele>178</ele>
        <time>2024-10-31T11:01:30+01:00</time>
      </trkpt>
      <trkpt lat="43.89349" lon="1.80567">
        <ele>181</ele>
        <time>2024-10-31T11:02:05+01:00</time>
      </trkpt>
      <trkpt lat="43.8934" lon="1.80536">
        <ele>185</ele>
        <time>2024-10-31T11:02:35+01:00</time>
      </trkpt>
      <trkpt lat="43.8933" lon="1.80504">
        <ele>191</ele>
        <time>2024-10-31T11:03:20+01:00</time>
      </trkpt>
      <trkpt lat="43.89322" lon="1.80475">
        <ele>196</ele>
        <time>2024-10-31T11:04:00+01:00</time>
      </trkpt>
      <trkpt lat="43.89309" lon="1.80446">
        <ele>203</ele>
        <time>2024-10-31T11:04:30+01:00</time>
      </trkpt>
      <trkpt lat="43.89299" lon="1.80414">
        <ele>211</ele>
        <time>2024-10-31T11:05:30+01:00</time>
      </trkpt>
      <trkpt lat="43.89318" lon="1.80389">
        <ele>214</ele>
        <time>2024-10-31T11:06:00+01:00</time>
      </trkpt>
      <trkpt lat="43.89338" lon="1.80357">
        <ele>217</ele>
        <time>2024-10-31T11:06:30+01:00</time>
      </trkpt>
      <trkpt lat="43.89367" lon="1.80317">
        <ele>221</ele>
        <time>2024-10-31T11:07:05+01:00</time>
      </trkpt>
      <trkpt lat="43.89372" lon="1.8029">
        <ele>226</ele>
        <time>2024-10-31T11:07:35+01:00</time>
      </trkpt>
      <trkpt lat="43.89339" lon="1.80317">
        <ele>227</ele>
        <time>2024-10-31T11:09:05+01:00</time>
      </trkpt>
      <trkpt lat="43.89313" lon="1.80329">
        <ele>228</ele>
        <time>2024-10-31T11:09:40+01:00</time>
      </trkpt>
      <trkpt lat="43.89291" lon="1.8032">
        <ele>231</ele>
        <time>2024-10-31T11:10:05+01:00</time>
      </trkpt>
      <trkpt lat="43.89293" lon="1.80286">
        <ele>233</ele>
        <time>2024-10-31T11:16:20+01:00</time>
      </trkpt>
      <trkpt lat="43.89279" lon="1.8025">
        <ele>227</ele>
        <time>2024-10-31T11:17:30+01:00</time>
      </trkpt>
      <trkpt lat="43.89266" lon="1.80224">
        <ele>221</ele>
        <time>2024-10-31T11:18:00+01:00</time>
      </trkpt>
      <trkpt lat="43.8925" lon="1.80199">
        <ele>216</ele>
        <time>2024-10-31T11:18:20+01:00</time>
      </trkpt>
      <trkpt lat="43.89235" lon="1.80174">
        <ele>212</ele>
        <time>2024-10-31T11:23:55+01:00</time>
      </trkpt>
      <trkpt lat="43.8922" lon="1.80142">
        <ele>210</ele>
        <time>2024-10-31T11:24:15+01:00</time>
      </trkpt>
      <trkpt lat="43.89202" lon="1.80121">
        <ele>210</ele>
        <time>2024-10-31T11:24:35+01:00</time>
      </trkpt>
      <trkpt lat="43.89179" lon="1.80113">
        <ele>210</ele>
        <time>2024-10-31T11:25:10+01:00</time>
      </trkpt>
      <trkpt lat="43.8915" lon="1.80123">
        <ele>210</ele>
        <time>2024-10-31T11:25:50+01:00</time>
      </trkpt>
      <trkpt lat="43.89125" lon="1.80127">
        <ele>210</ele>
        <time>2024-10-31T11:26:10+01:00</time>
      </trkpt>
      <trkpt lat="43.89098" lon="1.8013">
        <ele>210</ele>
        <time>2024-10-31T11:26:35+01:00</time>
      </trkpt>
      <trkpt lat="43.89075" lon="1.80127">
        <ele>210</ele>
        <time>2024-10-31T11:26:55+01:00</time>
      </trkpt>
      <trkpt lat="43.89052" lon="1.80115">
        <ele>209</ele>
        <time>2024-10-31T11:27:20+01:00</time>
      </trkpt>
      <trkpt lat="43.89031" lon="1.80104">
        <ele>206</ele>
        <time>2024-10-31T11:27:40+01:00</time>
      </trkpt>
      <trkpt lat="43.89017" lon="1.80096">
        <ele>204</ele>
      </trkpt>
      <trkpt lat="43.89007" lon="1.80103">
        <ele>203</ele>
        <time>2024-10-31T11:28:20+01:00</time>
      </trkpt>
      <trkpt lat="43.88988" lon="1.80125">
        <ele>199</ele>
        <time>2024-10-31T11:28:40+01:00</time>
      </trkpt>
      <trkpt lat="43.8897" lon="1.80149">
        <ele>194</ele>
        <time>2024-10-31T11:29:05+01:00</time>
      </trkpt>
      <trkpt lat="43.88949" lon="1.80172">
        <ele>190</ele>
        <time>2024-10-31T11:29:25+01:00</time>
      </trkpt>
      <trkpt lat="43.88929" lon="1.80193">
        <ele>186</ele>
        <time>2024-10-31T11:29:50+01:00</time>
      </trkpt>
      <trkpt lat="43.88913" lon="1.80216">
        <ele>183</ele>
        <time>2024-10-31T11:30:15+01:00</time>
      </trkpt>
      <trkpt lat="43.88896" lon="1.80237">
        <ele>181</ele>
        <time>2024-10-31T11:30:45+01:00</time>
      </trkpt>
      <trkpt lat="43.88876" lon="1.80261">
        <ele>178</ele>
        <time>2024-10-31T11:31:05+01:00</time>
      </trkpt>
      <trkpt lat="43.88855" lon="1.80292">
        <ele>176</ele>
        <time>2024-10-31T11:31:30+01:00</time>
      </trkpt>
      <trkpt lat="43.88835" lon="1.80299">
        <ele>173</ele>
        <time>2024-10-31T11:31:50+01:00</time>
      </trkpt>
      <trkpt lat="43.88803" lon="1.80272">
        <ele>167</ele>
        <time>2024-10-31T11:32:15+01:00</time>
      </trkpt>
      <trkpt lat="43.88781" lon="1.80254">
        <ele>163</ele>
        <time>2024-10-31T11:32:40+01:00</time>
      </trkpt>
      <trkpt lat="43.88761" lon="1.80235">
        <ele>161</ele>
        <time>2024-10-31T11:33:10+01:00</time>
      </trkpt>
      <trkpt lat="43.88733" lon="1.80213">
        <ele>160</ele>
        <time>2024-10-31T11:33:30+01:00</time>
      </trkpt>
      <trkpt lat="43.88712" lon="1.80197">
        <ele>159</ele>
        <time>2024-10-31T11:33:50+01:00</time>
      </trkpt>
      <trkpt lat="43.8869" lon="1.80181">
        <ele>159</ele>
        <time>2024-10-31T11:34:25+01:00</time>
      </trkpt>
      <trkpt lat="43.88671" lon="1.8016">
        <ele>158</ele>
        <time>2024-10-31T11:34:45+01:00</time>
      </trkpt>
      <trkpt lat="43.88665" lon="1.80131">
        <ele>158</ele>
        <time>2024-10-31T11:35:05+01:00</time>
      </trkpt>
      <trkpt lat="43.88632" lon="1.80119">
        <ele>157</ele>
        <time>2024-10-31T11:35:30+01:00</time>
      </trkpt>
      <trkpt lat="43.88608" lon="1.80114">
        <ele>156</ele>
        <time>2024-10-31T11:35:50+01:00</time>
      </trkpt>
      <trkpt lat="43.88581" lon="1.80105">
        <ele>155</ele>
        <time>2024-10-31T11:36:10+01:00</time>
      </trkpt>
      <trkpt lat="43.88558" lon="1.80098">
        <ele>154</ele>
        <time>2024-10-31T11:36:30+01:00</time>
      </trkpt>
      <trkpt lat="43.88532" lon="1.80093">
        <ele>154</ele>
        <time>2024-10-31T11:36:55+01:00</time>
      </trkpt>
      <trkpt lat="43.88507" lon="1.80088">
        <ele>153</ele>
        <time>2024-10-31T11:37:15+01:00</time>
      </trkpt>
      <trkpt lat="43.88473" lon="1.80082">
        <ele>152</ele>
        <time>2024-10-31T11:37:40+01:00</time>
      </trkpt>
      <trkpt lat="43.88473" lon="1.80052">
        <ele>152</ele>
        <time>2024-10-31T11:38:10+01:00</time>
      </trkpt>
      <trkpt lat="43.88464" lon="1.80023">
        <ele>152</ele>
        <time>2024-10-31T11:38:30+01:00</time>
      </trkpt>
      <trkpt lat="43.88454" lon="1.79989">
        <ele>151</ele>
        <time>2024-10-31T11:38:55+01:00</time>
      </trkpt>
      <trkpt lat="43.8844" lon="1.79963">
        <ele>151</ele>
        <time>2024-10-31T11:39:30+01:00</time>
      </trkpt>
      <trkpt lat="43.88427" lon="1.79933">
        <ele>150</ele>
        <time>2024-10-31T11:39:50+01:00</time>
      </trkpt>
      <trkpt lat="43.88416" lon="1.79904">
        <ele>150</ele>
        <time>2024-10-31T11:40:10+01:00</time>
      </trkpt>
      <trkpt lat="43.88407" lon="1.79868">
        <ele>150</ele>
        <time>2024-10-31T11:40:55+01:00</time>
      </trkpt>
      <trkpt lat="43.88397" lon="1.79838">
        <ele>150</ele>
        <time>2024-10-31T11:41:10+01:00</time>
      </trkpt>
      <trkpt lat="43.88386" lon="1.79808">
        <ele>150</ele>
        <time>2024-10-31T11:41:30+01:00</time>
      </trkpt>
      <trkpt lat="43.88375" lon="1.79781">
        <ele>150</ele>
        <time>2024-10-31T11:41:50+01:00</time>
      </trkpt>
      <trkpt lat="43.88364" lon="1.79746">
        <ele>150</ele>
        <time>2024-10-31T11:42:15+01:00</time>
      </trkpt>
      <trkpt lat="43.88349" lon="1.79715">
        <ele>151</ele>
        <time>2024-10-31T11:42:45+01:00</time>
      </trkpt>
      <trkpt lat="43.88339" lon="1.79679">
        <ele>151</ele>
        <time>2024-10-31T11:43:10+01:00</time>
      </trkpt>
      <trkpt lat="43.88336" lon="1.79646">
        <ele>151</ele>
        <time>2024-10-31T11:43:30+01:00</time>
      </trkpt>
      <trkpt lat="43.88332" lon="1.79615">
        <ele>152</ele>
        <time>2024-10-31T11:43:50+01:00</time>
      </trkpt>
      <trkpt lat="43.88328" lon="1.79581">
        <ele>152</ele>
        <time>2024-10-31T11:44:10+01:00</time>
      </trkpt>
      <trkpt lat="43.88314" lon="1.79551">
        <ele>154</ele>
        <time>2024-10-31T11:44:30+01:00</time>
      </trkpt>
      <trkpt lat="43.88299" lon="1.79535">
        <ele>156</ele>
        <time>2024-10-31T11:45:30+01:00</time>
      </trkpt>
      <trkpt lat="43.88256" lon="1.79551">
        <ele>152</ele>
        <time>2024-10-31T11:45:55+01:00</time>
      </trkpt>
      <trkpt lat="43.88234" lon="1.79535">
        <ele>151</ele>
        <time>2024-10-31T11:46:15+01:00</time>
      </trkpt>
      <trkpt lat="43.88211" lon="1.79518">
        <ele>150</ele>
        <time>2024-10-31T11:46:35+01:00</time>
      </trkpt>
      <trkpt lat="43.88222" lon="1.79489">
        <ele>151</ele>
        <time>2024-10-31T11:47:00+01:00</time>
      </trkpt>
      <trkpt lat="43.8824" lon="1.79464">
        <ele>154</ele>
        <time>2024-10-31T11:47:20+01:00</time>
      </trkpt>
      <trkpt lat="43.88262" lon="1.79437">
        <ele>157</ele>
        <time>2024-10-31T11:47:50+01:00</time>
      </trkpt>
      <trkpt lat="43.8828" lon="1.79417">
        <ele>158</ele>
        <time>2024-10-31T11:48:10+01:00</time>
      </trkpt>
      <trkpt lat="43.88296" lon="1.79392">
        <ele>158</ele>
        <time>2024-10-31T11:48:45+01:00</time>
      </trkpt>
      <trkpt lat="43.88316" lon="1.79364">
        <ele>159</ele>
        <time>2024-10-31T11:49:05+01:00</time>
      </trkpt>
      <trkpt lat="43.88335" lon="1.79341">
        <ele>161</ele>
        <time>2024-10-31T11:49:30+01:00</time>
      </trkpt>
      <trkpt lat="43.88354" lon="1.79318">
        <ele>164</ele>
        <time>2024-10-31T11:49:55+01:00</time>
      </trkpt>
      <trkpt lat="43.88374" lon="1.79296">
        <ele>167</ele>
        <time>2024-10-31T11:50:20+01:00</time>
      </trkpt>
      <trkpt lat="43.88391" lon="1.79269">
        <ele>170</ele>
        <time>2024-10-31T11:50:45+01:00</time>
      </trkpt>
      <trkpt lat="43.88411" lon="1.79247">
        <ele>171</ele>
        <time>2024-10-31T11:51:10+01:00</time>
      </trkpt>
      <trkpt lat="43.88432" lon="1.79226">
        <ele>174</ele>
        <time>2024-10-31T11:51:40+01:00</time>
      </trkpt>
      <trkpt lat="43.88455" lon="1.79206">
        <ele>176</ele>
        <time>2024-10-31T11:52:10+01:00</time>
      </trkpt>
      <trkpt lat="43.88477" lon="1.79191">
        <ele>178</ele>
        <time>2024-10-31T11:52:35+01:00</time>
      </trkpt>
      <trkpt lat="43.88499" lon="1.7917">
        <ele>180</ele>
        <time>2024-10-31T11:53:05+01:00</time>
      </trkpt>
      <trkpt lat="43.88521" lon="1.79153">
        <ele>181</ele>
        <time>2024-10-31T11:53:35+01:00</time>
      </trkpt>
      <trkpt lat="43.88543" lon="1.79134">
        <ele>183</ele>
        <time>2024-10-31T11:54:15+01:00</time>
      </trkpt>
      <trkpt lat="43.88559" lon="1.79112">
        <ele>185</ele>
        <time>2024-10-31T11:54:40+01:00</time>
      </trkpt>
      <trkpt lat="43.88563" lon="1.79077">
        <ele>186</ele>
        <time>2024-10-31T11:58:35+01:00</time>
      </trkpt>
      <trkpt lat="43.88572" lon="1.79042">
        <ele>187</ele>
        <time>2024-10-31T11:58:55+01:00</time>
      </trkpt>
      <trkpt lat="43.88585" lon="1.79005">
        <ele>189</ele>
        <time>2024-10-31T11:59:20+01:00</time>
      </trkpt>
      <trkpt lat="43.886" lon="1.7898">
        <ele>192</ele>
        <time>2024-10-31T11:59:45+01:00</time>
      </trkpt>
      <trkpt lat="43.88621" lon="1.78956">
        <ele>194</ele>
        <time>2024-10-31T12:00:20+01:00</time>
      </trkpt>
      <trkpt lat="43.88642" lon="1.78937">
        <ele>196</ele>
        <time>2024-10-31T12:00:45+01:00</time>
      </trkpt>
      <trkpt lat="43.88619" lon="1.78927">
        <ele>196</ele>
        <time>2024-10-31T12:01:30+01:00</time>
      </trkpt>
      <trkpt lat="43.88594" lon="1.78923">
        <ele>195</ele>
        <time>2024-10-31T12:02:05+01:00</time>
      </trkpt>
      <trkpt lat="43.88571" lon="1.78926">
        <ele>196</ele>
        <time>2024-10-31T12:02:45+01:00</time>
      </trkpt>
      <trkpt lat="43.88553" lon="1.78923">
        <ele>197</ele>
        <time>2024-10-31T12:03:25+01:00</time>
      </trkpt>
      <trkpt lat="43.88536" lon="1.78877">
        <ele>200</ele>
        <time>2024-10-31T12:42:00+01:00</time>
      </trkpt>
      <trkpt lat="43.88549" lon="1.78923">
        <ele>197</ele>
        <time>2024-10-31T12:45:10+01:00</time>
      </trkpt>
      <trkpt lat="43.88529" lon="1.78923">
        <ele>196</ele>
        <time>2024-10-31T12:45:55+01:00</time>
      </trkpt>
      <trkpt lat="43.88498" lon="1.78926">
        <ele>191</ele>
        <time>2024-10-31T12:46:10+01:00</time>
      </trkpt>
      <trkpt lat="43.88471" lon="1.7893">
        <ele>187</ele>
        <time>2024-10-31T12:46:40+01:00</time>
      </trkpt>
      <trkpt lat="43.88446" lon="1.78932">
        <ele>184</ele>
        <time>2024-10-31T12:47:00+01:00</time>
      </trkpt>
      <trkpt lat="43.8842" lon="1.78929">
        <ele>181</ele>
        <time>2024-10-31T12:47:45+01:00</time>
      </trkpt>
      <trkpt lat="43.88395" lon="1.78927">
        <ele>177</ele>
        <time>2024-10-31T12:48:10+01:00</time>
      </trkpt>
      <trkpt lat="43.8837" lon="1.78932">
        <ele>174</ele>
        <time>2024-10-31T12:48:35+01:00</time>
      </trkpt>
      <trkpt lat="43.88346" lon="1.78932">
        <ele>172</ele>
        <time>2024-10-31T12:49:00+01:00</time>
      </trkpt>
      <trkpt lat="43.88319" lon="1.78931">
        <ele>170</ele>
        <time>2024-10-31T12:49:25+01:00</time>
      </trkpt>
      <trkpt lat="43.88295" lon="1.78937">
        <ele>169</ele>
        <time>2024-10-31T12:49:45+01:00</time>
      </trkpt>
      <trkpt lat="43.88268" lon="1.78934">
        <ele>166</ele>
        <time>2024-10-31T12:50:10+01:00</time>
      </trkpt>
      <trkpt lat="43.88243" lon="1.78936">
        <ele>163</ele>
        <time>2024-10-31T12:50:40+01:00</time>
      </trkpt>
      <trkpt lat="43.88218" lon="1.7895">
        <ele>161</ele>
        <time>2024-10-31T12:51:05+01:00</time>
      </trkpt>
      <trkpt lat="43.88197" lon="1.78962">
        <ele>159</ele>
        <time>2024-10-31T12:51:25+01:00</time>
      </trkpt>
      <trkpt lat="43.88175" lon="1.78976">
        <ele>158</ele>
        <time>2024-10-31T12:52:00+01:00</time>
      </trkpt>
      <trkpt lat="43.88148" lon="1.78995">
        <ele>155</ele>
        <time>2024-10-31T12:52:50+01:00</time>
      </trkpt>
      <trkpt lat="43.88126" lon="1.79013">
        <ele>154</ele>
        <time>2024-10-31T12:53:05+01:00</time>
      </trkpt>
      <trkpt lat="43.88103" lon="1.7903">
        <ele>152</ele>
        <time>2024-10-31T12:53:25+01:00</time>
      </trkpt>
      <trkpt lat="43.88079" lon="1.79049">
        <ele>151</ele>
        <time>2024-10-31T12:53:45+01:00</time>
      </trkpt>
      <trkpt lat="43.88059" lon="1.79063">
        <ele>150</ele>
        <time>2024-10-31T12:54:05+01:00</time>
      </trkpt>
      <trkpt lat="43.88049" lon="1.79069">
        <ele>149</ele>
      </trkpt>
      <trkpt lat="43.88039" lon="1.79045">
        <ele>149</ele>
        <time>2024-10-31T12:54:40+01:00</time>
      </trkpt>
      <trkpt lat="43.88021" lon="1.79059">
        <ele>149</ele>
      </trkpt>
      <trkpt lat="43.88007" lon="1.79055">
        <ele>148</ele>
        <time>2024-10-31T12:54:55+01:00</time>
      </trkpt>
      <trkpt lat="43.87985" lon="1.79071">
        <ele>147</ele>
        <time>2024-10-31T12:55:20+01:00</time>
      </trkpt>
      <trkpt lat="43.87965" lon="1.79096">
        <ele>146</ele>
        <time>2024-10-31T12:55:50+01:00</time>
      </trkpt>
      <trkpt lat="43.87942" lon="1.79112">
        <ele>145</ele>
        <time>2024-10-31T12:56:10+01:00</time>
      </trkpt>
      <trkpt lat="43.8792" lon="1.79129">
        <ele>145</ele>
        <time>2024-10-31T12:56:30+01:00</time>
      </trkpt>
      <trkpt lat="43.879" lon="1.79147">
        <ele>145</ele>
        <time>2024-10-31T12:56:55+01:00</time>
      </trkpt>
      <trkpt lat="43.87869" lon="1.79166">
        <ele>144</ele>
        <time>2024-10-31T12:57:15+01:00</time>
      </trkpt>
      <trkpt lat="43.87883" lon="1.79202">
        <ele>144</ele>
        <time>2024-10-31T12:57:40+01:00</time>
      </trkpt>
      <trkpt lat="43.879" lon="1.79229">
        <ele>144</ele>
        <time>2024-10-31T12:58:00+01:00</time>
      </trkpt>
      <trkpt lat="43.87917" lon="1.79253">
        <ele>144</ele>
        <time>2024-10-31T12:58:20+01:00</time>
      </trkpt>
      <trkpt lat="43.87934" lon="1.79278">
        <ele>144</ele>
        <time>2024-10-31T12:58:40+01:00</time>
      </trkpt>
      <trkpt lat="43.87949" lon="1.79308">
        <ele>144</ele>
        <time>2024-10-31T12:59:05+01:00</time>
      </trkpt>
      <trkpt lat="43.87964" lon="1.79333">
        <ele>144</ele>
        <time>2024-10-31T12:59:40+01:00</time>
      </trkpt>
      <trkpt lat="43.8798" lon="1.7936">
        <ele>144</ele>
        <time>2024-10-31T13:00:05+01:00</time>
      </trkpt>
      <trkpt lat="43.87999" lon="1.7939">
        <ele>145</ele>
        <time>2024-10-31T13:00:25+01:00</time>
      </trkpt>
      <trkpt lat="43.88015" lon="1.79428">
        <ele>145</ele>
        <time>2024-10-31T13:00:55+01:00</time>
      </trkpt>
      <trkpt lat="43.88022" lon="1.7945">
        <ele>146</ele>
      </trkpt>
      <trkpt lat="43.88011" lon="1.7946">
        <ele>145</ele>
        <time>2024-10-31T13:01:25+01:00</time>
      </trkpt>
      <trkpt lat="43.87987" lon="1.79479">
        <ele>144</ele>
        <time>2024-10-31T13:01:45+01:00</time>
      </trkpt>
      <trkpt lat="43.87965" lon="1.79495">
        <ele>144</ele>
        <time>2024-10-31T13:02:05+01:00</time>
      </trkpt>
      <trkpt lat="43.87938" lon="1.79517">
        <ele>143</ele>
        <time>2024-10-31T13:02:35+01:00</time>
      </trkpt>
      <trkpt lat="43.8792" lon="1.79511">
        <ele>143</ele>
        <time>2024-10-31T13:03:00+01:00</time>
      </trkpt>
      <trkpt lat="43.879" lon="1.7949">
        <ele>143</ele>
        <time>2024-10-31T13:03:35+01:00</time>
      </trkpt>
      <trkpt lat="43.87881" lon="1.7947">
        <ele>143</ele>
        <time>2024-10-31T13:03:50+01:00</time>
      </trkpt>
      <trkpt lat="43.87861" lon="1.79449">
        <ele>142</ele>
        <time>2024-10-31T13:04:15+01:00</time>
      </trkpt>
      <trkpt lat="43.87837" lon="1.79434">
        <ele>142</ele>
        <time>2024-10-31T13:05:15+01:00</time>
      </trkpt>
      <trkpt lat="43.87816" lon="1.79418">
        <ele>141</ele>
        <time>2024-10-31T13:06:00+01:00</time>
      </trkpt>
      <trkpt lat="43.87796" lon="1.79402">
        <ele>141</ele>
        <time>2024-10-31T13:06:20+01:00</time>
      </trkpt>
      <trkpt lat="43.87778" lon="1.7938">
        <ele>141</ele>
        <time>2024-10-31T13:06:45+01:00</time>
      </trkpt>
      <trkpt lat="43.87761" lon="1.79358">
        <ele>141</ele>
        <time>2024-10-31T13:07:15+01:00</time>
      </trkpt>
      <trkpt lat="43.87741" lon="1.79331">
        <ele>141</ele>
        <time>2024-10-31T13:07:50+01:00</time>
      </trkpt>
      <trkpt lat="43.8772" lon="1.79308">
        <ele>140</ele>
        <time>2024-10-31T13:08:00+01:00</time>
      </trkpt>
      <trkpt lat="43.87699" lon="1.79287">
        <ele>140</ele>
        <time>2024-10-31T13:08:40+01:00</time>
      </trkpt>
      <trkpt lat="43.87677" lon="1.79263">
        <ele>139</ele>
        <time>2024-10-31T13:09:00+01:00</time>
      </trkpt>
      <trkpt lat="43.87657" lon="1.79237">
        <ele>139</ele>
        <time>2024-10-31T13:09:20+01:00</time>
      </trkpt>
      <trkpt lat="43.87637" lon="1.79218">
        <ele>139</ele>
        <time>2024-10-31T13:09:35+01:00</time>
      </trkpt>
      <trkpt lat="43.87614" lon="1.79204">
        <ele>139</ele>
        <time>2024-10-31T13:10:00+01:00</time>
      </trkpt>
      <trkpt lat="43.87591" lon="1.79192">
        <ele>139</ele>
        <time>2024-10-31T13:10:25+01:00</time>
      </trkpt>
      <trkpt lat="43.87577" lon="1.79194">
        <ele>139</ele>
      </trkpt>
      <trkpt lat="43.87568" lon="1.79211">
        <ele>139</ele>
        <time>2024-10-31T13:10:50+01:00</time>
      </trkpt>
      <trkpt lat="43.87551" lon="1.79233">
        <ele>138</ele>
        <time>2024-10-31T13:11:10+01:00</time>
      </trkpt>
      <trkpt lat="43.87531" lon="1.79253">
        <ele>138</ele>
        <time>2024-10-31T13:11:30+01:00</time>
      </trkpt>
      <trkpt lat="43.87512" lon="1.79278">
        <ele>137</ele>
        <time>2024-10-31T13:11:55+01:00</time>
      </trkpt>
      <trkpt lat="43.87493" lon="1.79302">
        <ele>137</ele>
        <time>2024-10-31T13:12:20+01:00</time>
      </trkpt>
      <trkpt lat="43.87472" lon="1.79326">
        <ele>137</ele>
        <time>2024-10-31T13:12:45+01:00</time>
      </trkpt>
      <trkpt lat="43.87455" lon="1.79348">
        <ele>137</ele>
        <time>2024-10-31T13:13:05+01:00</time>
      </trkpt>
      <trkpt lat="43.87439" lon="1.79372">
        <ele>137</ele>
        <time>2024-10-31T13:13:30+01:00</time>
      </trkpt>
      <trkpt lat="43.8742" lon="1.79399">
        <ele>137</ele>
        <time>2024-10-31T13:14:00+01:00</time>
      </trkpt>
      <trkpt lat="43.87401" lon="1.79425">
        <ele>137</ele>
        <time>2024-10-31T13:14:15+01:00</time>
      </trkpt>
      <trkpt lat="43.87384" lon="1.79449">
        <ele>137</ele>
        <time>2024-10-31T13:14:40+01:00</time>
      </trkpt>
      <trkpt lat="43.8737" lon="1.79478">
        <ele>136</ele>
        <time>2024-10-31T13:15:00+01:00</time>
      </trkpt>
      <trkpt lat="43.8738" lon="1.79516">
        <ele>136</ele>
        <time>2024-10-31T13:15:20+01:00</time>
      </trkpt>
      <trkpt lat="43.8737" lon="1.79538">
        <ele>136</ele>
        <time>2024-10-31T13:15:50+01:00</time>
      </trkpt>
      <trkpt lat="43.87349" lon="1.79563">
        <ele>136</ele>
        <time>2024-10-31T13:16:15+01:00</time>
      </trkpt>
      <trkpt lat="43.87329" lon="1.79588">
        <ele>136</ele>
        <time>2024-10-31T13:16:35+01:00</time>
      </trkpt>
      <trkpt lat="43.87309" lon="1.79614">
        <ele>136</ele>
        <time>2024-10-31T13:17:05+01:00</time>
      </trkpt>
      <trkpt lat="43.87289" lon="1.79637">
        <ele>136</ele>
        <time>2024-10-31T13:17:50+01:00</time>
      </trkpt>
      <trkpt lat="43.87269" lon="1.79661">
        <ele>136</ele>
        <time>2024-10-31T13:18:40+01:00</time>
      </trkpt>
      <trkpt lat="43.87247" lon="1.79688">
        <ele>135</ele>
        <time>2024-10-31T13:18:55+01:00</time>
      </trkpt>
      <trkpt lat="43.87231" lon="1.79716">
        <ele>135</ele>
        <time>2024-10-31T13:19:20+01:00</time>
      </trkpt>
      <trkpt lat="43.87216" lon="1.79743">
        <ele>135</ele>
        <time>2024-10-31T13:19:40+01:00</time>
      </trkpt>
      <trkpt lat="43.87202" lon="1.79769">
        <ele>135</ele>
        <time>2024-10-31T13:20:05+01:00</time>
      </trkpt>
      <trkpt lat="43.87187" lon="1.79796">
        <ele>135</ele>
        <time>2024-10-31T13:20:20+01:00</time>
      </trkpt>
      <trkpt lat="43.87173" lon="1.79829">
        <ele>135</ele>
        <time>2024-10-31T13:20:45+01:00</time>
      </trkpt>
      <trkpt lat="43.87161" lon="1.79858">
        <ele>135</ele>
        <time>2024-10-31T13:21:00+01:00</time>
      </trkpt>
      <trkpt lat="43.8715" lon="1.79886">
        <ele>135</ele>
        <time>2024-10-31T13:21:25+01:00</time>
      </trkpt>
      <trkpt lat="43.87132" lon="1.79908">
        <ele>135</ele>
        <time>2024-10-31T13:21:50+01:00</time>
      </trkpt>
      <trkpt lat="43.87106" lon="1.79902">
        <ele>135</ele>
        <time>2024-10-31T13:22:30+01:00</time>
      </trkpt>
      <trkpt lat="43.87079" lon="1.79896">
        <ele>135</ele>
        <time>2024-10-31T13:22:45+01:00</time>
      </trkpt>
      <trkpt lat="43.87056" lon="1.79891">
        <ele>135</ele>
        <time>2024-10-31T13:23:10+01:00</time>
      </trkpt>
      <trkpt lat="43.87032" lon="1.79886">
        <ele>134</ele>
        <time>2024-10-31T13:23:20+01:00</time>
      </trkpt>
      <trkpt lat="43.87008" lon="1.79881">
        <ele>134</ele>
        <time>2024-10-31T13:23:45+01:00</time>
      </trkpt>
      <trkpt lat="43.86982" lon="1.79873">
        <ele>134</ele>
        <time>2024-10-31T13:24:10+01:00</time>
      </trkpt>
      <trkpt lat="43.86959" lon="1.7987">
        <ele>134</ele>
        <time>2024-10-31T13:24:25+01:00</time>
      </trkpt>
      <trkpt lat="43.86931" lon="1.79864">
        <ele>134</ele>
        <time>2024-10-31T13:24:50+01:00</time>
      </trkpt>
      <trkpt lat="43.86906" lon="1.7986">
        <ele>134</ele>
        <time>2024-10-31T13:25:15+01:00</time>
      </trkpt>
      <trkpt lat="43.86883" lon="1.79856">
        <ele>134</ele>
        <time>2024-10-31T13:26:10+01:00</time>
      </trkpt>
      <trkpt lat="43.8686" lon="1.79848">
        <ele>134</ele>
        <time>2024-10-31T13:26:30+01:00</time>
      </trkpt>
      <trkpt lat="43.86838" lon="1.79841">
        <ele>134</ele>
        <time>2024-10-31T13:26:50+01:00</time>
      </trkpt>
      <trkpt lat="43.86811" lon="1.79844">
        <ele>134</ele>
        <time>2024-10-31T13:27:15+01:00</time>
      </trkpt>
      <trkpt lat="43.86786" lon="1.79847">
        <ele>133</ele>
        <time>2024-10-31T13:27:35+01:00</time>
      </trkpt>
      <trkpt lat="43.86762" lon="1.79851">
        <ele>133</ele>
        <time>2024-10-31T13:27:55+01:00</time>
      </trkpt>
      <trkpt lat="43.86735" lon="1.79853">
        <ele>133</ele>
        <time>2024-10-31T13:28:20+01:00</time>
      </trkpt>
      <trkpt lat="43.86712" lon="1.79855">
        <ele>133</ele>
        <time>2024-10-31T13:28:40+01:00</time>
      </trkpt>
      <trkpt lat="43.86686" lon="1.79854">
        <ele>133</ele>
        <time>2024-10-31T13:29:05+01:00</time>
      </trkpt>
      <trkpt lat="43.86663" lon="1.79848">
        <ele>133</ele>
        <time>2024-10-31T13:29:25+01:00</time>
      </trkpt>
      <trkpt lat="43.8664" lon="1.79855">
        <ele>133</ele>
        <time>2024-10-31T13:29:45+01:00</time>
      </trkpt>
      <trkpt lat="43.86617" lon="1.79856">
        <ele>133</ele>
        <time>2024-10-31T13:30:05+01:00</time>
      </trkpt>
      <trkpt lat="43.86593" lon="1.79857">
        <ele>132</ele>
        <time>2024-10-31T13:30:25+01:00</time>
      </trkpt>
      <trkpt lat="43.86569" lon="1.79858">
        <ele>132</ele>
        <time>2024-10-31T13:30:45+01:00</time>
      </trkpt>
      <trkpt lat="43.86546" lon="1.79858">
        <ele>132</ele>
        <time>2024-10-31T13:31:05+01:00</time>
      </trkpt>
      <trkpt lat="43.86518" lon="1.79859">
        <ele>132</ele>
        <time>2024-10-31T13:31:30+01:00</time>
      </trkpt>
      <trkpt lat="43.86494" lon="1.79859">
        <ele>132</ele>
        <time>2024-10-31T13:31:50+01:00</time>
      </trkpt>
      <trkpt lat="43.86468" lon="1.79861">
        <ele>132</ele>
        <time>2024-10-31T13:32:25+01:00</time>
      </trkpt>
      <trkpt lat="43.8644" lon="1.79862">
        <ele>132</ele>
        <time>2024-10-31T13:32:45+01:00</time>
      </trkpt>
      <trkpt lat="43.86417" lon="1.79863">
        <ele>132</ele>
        <time>2024-10-31T13:33:05+01:00</time>
      </trkpt>
      <trkpt lat="43.86391" lon="1.79862">
        <ele>132</ele>
        <time>2024-10-31T13:33:25+01:00</time>
      </trkpt>
      <trkpt lat="43.86366" lon="1.7986">
        <ele>131</ele>
        <time>2024-10-31T13:33:45+01:00</time>
      </trkpt>
      <trkpt lat="43.86343" lon="1.7986">
        <ele>131</ele>
        <time>2024-10-31T13:34:05+01:00</time>
      </trkpt>
      <trkpt lat="43.86319" lon="1.79868">
        <ele>131</ele>
        <time>2024-10-31T13:34:30+01:00</time>
      </trkpt>
      <trkpt lat="43.86294" lon="1.79883">
        <ele>131</ele>
        <time>2024-10-31T13:34:55+01:00</time>
      </trkpt>
      <trkpt lat="43.86271" lon="1.79888">
        <ele>131</ele>
        <time>2024-10-31T13:35:15+01:00</time>
      </trkpt>
      <trkpt lat="43.86244" lon="1.79899">
        <ele>131</ele>
        <time>2024-10-31T13:35:40+01:00</time>
      </trkpt>
      <trkpt lat="43.86221" lon="1.79909">
        <ele>131</ele>
        <time>2024-10-31T13:36:05+01:00</time>
      </trkpt>
      <trkpt lat="43.862" lon="1.7992">
        <ele>131</ele>
        <time>2024-10-31T13:36:30+01:00</time>
      </trkpt>
      <trkpt lat="43.86178" lon="1.79933">
        <ele>130</ele>
        <time>2024-10-31T13:36:50+01:00</time>
      </trkpt>
      <trkpt lat="43.86139" lon="1.79955">
        <ele>130</ele>
        <time>2024-10-31T13:37:10+01:00</time>
      </trkpt>
      <trkpt lat="43.86133" lon="1.79943">
        <ele>130</ele>
        <time>2024-10-31T13:37:35+01:00</time>
      </trkpt>
      <trkpt lat="43.8613" lon="1.79909">
        <ele>130</ele>
        <time>2024-10-31T13:37:55+01:00</time>
      </trkpt>
      <trkpt lat="43.86124" lon="1.79872">
        <ele>130</ele>
        <time>2024-10-31T13:38:20+01:00</time>
      </trkpt>
      <trkpt lat="43.86117" lon="1.79834">
        <ele>130</ele>
        <time>2024-10-31T13:38:45+01:00</time>
      </trkpt>
      <trkpt lat="43.86115" lon="1.798">
        <ele>130</ele>
        <time>2024-10-31T13:39:05+01:00</time>
      </trkpt>
      <trkpt lat="43.86113" lon="1.79768">
        <ele>130</ele>
        <time>2024-10-31T13:39:30+01:00</time>
      </trkpt>
      <trkpt lat="43.86103" lon="1.79736">
        <ele>130</ele>
        <time>2024-10-31T13:39:50+01:00</time>
      </trkpt>
      <trkpt lat="43.8609" lon="1.79702">
        <ele>130</ele>
        <time>2024-10-31T13:40:10+01:00</time>
      </trkpt>
      <trkpt lat="43.86075" lon="1.79673">
        <ele>130</ele>
        <time>2024-10-31T13:40:35+01:00</time>
      </trkpt>
      <trkpt lat="43.86057" lon="1.79642">
        <ele>130</ele>
        <time>2024-10-31T13:41:25+01:00</time>
      </trkpt>
      <trkpt lat="43.86037" lon="1.79675">
        <ele>129</ele>
        <time>2024-10-31T13:42:00+01:00</time>
      </trkpt>
      <trkpt lat="43.86022" lon="1.79702">
        <ele>129</ele>
        <time>2024-10-31T13:42:20+01:00</time>
      </trkpt>
      <trkpt lat="43.86005" lon="1.7973">
        <ele>129</ele>
        <time>2024-10-31T13:42:45+01:00</time>
      </trkpt>
      <trkpt lat="43.85982" lon="1.79759">
        <ele>129</ele>
        <time>2024-10-31T13:43:10+01:00</time>
      </trkpt>
      <trkpt lat="43.85963" lon="1.79786">
        <ele>129</ele>
        <time>2024-10-31T13:43:35+01:00</time>
      </trkpt>
      <trkpt lat="43.85945" lon="1.79811">
        <ele>129</ele>
        <time>2024-10-31T13:44:00+01:00</time>
      </trkpt>
      <trkpt lat="43.85925" lon="1.79836">
        <ele>129</ele>
        <time>2024-10-31T13:44:25+01:00</time>
      </trkpt>
      <trkpt lat="43.85907" lon="1.79859">
        <ele>129</ele>
        <time>2024-10-31T13:44:40+01:00</time>
      </trkpt>
      <trkpt lat="43.85889" lon="1.79885">
        <ele>128</ele>
        <time>2024-10-31T13:45:00+01:00</time>
      </trkpt>
      <trkpt lat="43.85873" lon="1.79911">
        <ele>128</ele>
        <time>2024-10-31T13:45:35+01:00</time>
      </trkpt>
      <trkpt lat="43.85848" lon="1.79936">
        <ele>127</ele>
        <time>2024-10-31T13:45:50+01:00</time>
      </trkpt>
      <trkpt lat="43.85826" lon="1.79956">
        <ele>127</ele>
        <time>2024-10-31T13:46:10+01:00</time>
      </trkpt>
      <trkpt lat="43.85806" lon="1.79974">
        <ele>127</ele>
        <time>2024-10-31T13:46:35+01:00</time>
      </trkpt>
      <trkpt lat="43.85789" lon="1.79996">
        <ele>127</ele>
        <time>2024-10-31T13:46:50+01:00</time>
      </trkpt>
      <trkpt lat="43.85772" lon="1.80016">
        <ele>127</ele>
        <time>2024-10-31T13:47:10+01:00</time>
      </trkpt>
      <trkpt lat="43.85754" lon="1.80034">
        <ele>127</ele>
        <time>2024-10-31T13:47:30+01:00</time>
      </trkpt>
      <trkpt lat="43.8573" lon="1.80051">
        <ele>126</ele>
        <time>2024-10-31T13:47:50+01:00</time>
      </trkpt>
      <trkpt lat="43.85707" lon="1.80072">
        <ele>126</ele>
        <time>2024-10-31T13:48:20+01:00</time>
      </trkpt>
      <trkpt lat="43.85685" lon="1.80087">
        <ele>125</ele>
        <time>2024-10-31T13:48:40+01:00</time>
      </trkpt>
      <trkpt lat="43.85665" lon="1.80104">
        <ele>125</ele>
        <time>2024-10-31T13:49:00+01:00</time>
      </trkpt>
      <trkpt lat="43.85647" lon="1.80123">
        <ele>125</ele>
        <time>2024-10-31T13:49:20+01:00</time>
      </trkpt>
      <trkpt lat="43.85628" lon="1.80147">
        <ele>125</ele>
        <time>2024-10-31T13:49:50+01:00</time>
      </trkpt>
      <trkpt lat="43.8561" lon="1.80172">
        <ele>125</ele>
        <time>2024-10-31T13:50:10+01:00</time>
      </trkpt>
      <trkpt lat="43.85592" lon="1.80201">
        <ele>125</ele>
        <time>2024-10-31T13:50:35+01:00</time>
      </trkpt>
      <trkpt lat="43.85574" lon="1.80229">
        <ele>125</ele>
        <time>2024-10-31T13:50:55+01:00</time>
      </trkpt>
      <trkpt lat="43.85549" lon="1.80267">
        <ele>125</ele>
        <time>2024-10-31T13:51:20+01:00</time>
      </trkpt>
      <trkpt lat="43.85529" lon="1.80248">
        <ele>125</ele>
        <time>2024-10-31T13:51:45+01:00</time>
      </trkpt>
      <trkpt lat="43.85507" lon="1.80277">
        <ele>125</ele>
        <time>2024-10-31T13:52:30+01:00</time>
      </trkpt>
      <trkpt lat="43.85483" lon="1.80301">
        <ele>125</ele>
        <time>2024-10-31T13:52:55+01:00</time>
      </trkpt>
      <trkpt lat="43.85457" lon="1.80321">
        <ele>125</ele>
        <time>2024-10-31T13:53:15+01:00</time>
      </trkpt>
      <trkpt lat="43.85436" lon="1.8034">
        <ele>125</ele>
        <time>2024-10-31T13:53:30+01:00</time>
      </trkpt>
      <trkpt lat="43.85421" lon="1.80357">
        <ele>125</ele>
        <time>2024-10-31T13:53:50+01:00</time>
      </trkpt>
      <trkpt lat="43.85402" lon="1.80376">
        <ele>125</ele>
        <time>2024-10-31T13:54:10+01:00</time>
      </trkpt>
      <trkpt lat="43.8538" lon="1.804">
        <ele>125</ele>
        <time>2024-10-31T13:54:35+01:00</time>
      </trkpt>
      <trkpt lat="43.8536" lon="1.80416">
        <ele>125</ele>
        <time>2024-10-31T13:54:55+01:00</time>
      </trkpt>
      <trkpt lat="43.85342" lon="1.80436">
        <ele>125</ele>
        <time>2024-10-31T13:55:15+01:00</time>
      </trkpt>
      <trkpt lat="43.85327" lon="1.80461">
        <ele>125</ele>
        <time>2024-10-31T13:55:40+01:00</time>
      </trkpt>
      <trkpt lat="43.85314" lon="1.80467">
        <ele>126</ele>
      </trkpt>
      <trkpt lat="43.8531" lon="1.80479">
        <ele>126</ele>
        <time>2024-10-31T13:56:25+01:00</time>
      </trkpt>
      <trkpt lat="43.85282" lon="1.80496">
        <ele>126</ele>
        <time>2024-10-31T13:56:50+01:00</time>
      </trkpt>
      <trkpt lat="43.85264" lon="1.80534">
        <ele>125</ele>
        <time>2024-10-31T13:57:20+01:00</time>
      </trkpt>
      <trkpt lat="43.85248" lon="1.80565">
        <ele>125</ele>
        <time>2024-10-31T13:57:50+01:00</time>
      </trkpt>
      <trkpt lat="43.85273" lon="1.80602">
        <ele>125</ele>
        <time>2024-10-31T13:58:10+01:00</time>
      </trkpt>
      <trkpt lat="43.85298" lon="1.80627">
        <ele>122</ele>
        <time>2024-10-31T13:58:30+01:00</time>
      </trkpt>
      <trkpt lat="43.85319" lon="1.80645">
        <ele>121</ele>
        <time>2024-10-31T13:58:50+01:00</time>
      </trkpt>
      <trkpt lat="43.85343" lon="1.80661">
        <ele>121</ele>
        <time>2024-10-31T13:59:20+01:00</time>
      </trkpt>
      <trkpt lat="43.85366" lon="1.80669">
        <ele>122</ele>
        <time>2024-10-31T14:00:05+01:00</time>
      </trkpt>
      <trkpt lat="43.85396" lon="1.80675">
        <ele>125</ele>
        <time>2024-10-31T14:00:30+01:00</time>
      </trkpt>
      <trkpt lat="43.85414" lon="1.80687">
        <ele>125</ele>
        <time>2024-10-31T14:00:55+01:00</time>
      </trkpt>
      <trkpt lat="43.85445" lon="1.8071">
        <ele>125</ele>
        <time>2024-10-31T14:01:30+01:00</time>
      </trkpt>
      <trkpt lat="43.85433" lon="1.80746">
        <ele>125</ele>
        <time>2024-10-31T14:02:25+01:00</time>
      </trkpt>
      <trkpt lat="43.85422" lon="1.80775">
        <ele>124</ele>
        <time>2024-10-31T14:02:55+01:00</time>
      </trkpt>
      <trkpt lat="43.85412" lon="1.80813">
        <ele>121</ele>
        <time>2024-10-31T14:03:55+01:00</time>
      </trkpt>
      <trkpt lat="43.85396" lon="1.80854">
        <ele>120</ele>
        <time>2024-10-31T14:04:10+01:00</time>
      </trkpt>
      <trkpt lat="43.85387" lon="1.8088">
        <ele>120</ele>
        <time>2024-10-31T14:04:20+01:00</time>
      </trkpt>
      <trkpt lat="43.85375" lon="1.80909">
        <ele>120</ele>
        <time>2024-10-31T14:04:35+01:00</time>
      </trkpt>
      <trkpt lat="43.85363" lon="1.80937">
        <ele>120</ele>
        <time>2024-10-31T14:05:05+01:00</time>
      </trkpt>
      <trkpt lat="43.85352" lon="1.80966">
        <ele>120</ele>
        <time>2024-10-31T14:05:35+01:00</time>
      </trkpt>
      <trkpt lat="43.85342" lon="1.80998">
        <ele>120</ele>
        <time>2024-10-31T14:05:55+01:00</time>
      </trkpt>
      <trkpt lat="43.85331" lon="1.81016">
        <ele>120</ele>
        <time>2024-10-31T14:07:50+01:00</time>
      </trkpt>
      <trkpt lat="43.85307" lon="1.81003">
        <ele>120</ele>
        <time>2024-10-31T14:08:35+01:00</time>
      </trkpt>
      <trkpt lat="43.85278" lon="1.80978">
        <ele>120</ele>
        <time>2024-10-31T14:09:30+01:00</time>
      </trkpt>
      <trkpt lat="43.85268" lon="1.81014">
        <ele>120</ele>
        <time>2024-10-31T14:10:05+01:00</time>
      </trkpt>
      <trkpt lat="43.85257" lon="1.81038">
        <ele>120</ele>
        <time>2024-10-31T14:10:40+01:00</time>
      </trkpt>
      <trkpt lat="43.85252" lon="1.8105">
        <ele>120</ele>
      </trkpt>
      <trkpt lat="43.85241" lon="1.81051">
        <ele>120</ele>
      </trkpt>
      <trkpt lat="43.85228" lon="1.81045">
        <ele>120</ele>
        <time>2024-10-31T14:11:30+01:00</time>
      </trkpt>
      <trkpt lat="43.85202" lon="1.81028">
        <ele>120</ele>
        <time>2024-10-31T14:12:05+01:00</time>
      </trkpt>
      <trkpt lat="43.85188" lon="1.81055">
        <ele>120</ele>
        <time>2024-10-31T14:13:35+01:00</time>
      </trkpt>
      <trkpt lat="43.85162" lon="1.81056">
        <ele>120</ele>
        <time>2024-10-31T14:14:50+01:00</time>
      </trkpt>
      <trkpt lat="43.85132" lon="1.81041">
        <ele>120</ele>
        <time>2024-10-31T14:16:35+01:00</time>
      </trkpt>
      <trkpt lat="43.85144" lon="1.81051">
        <ele>120</ele>
      </trkpt>
      <trkpt lat="43.85139" lon="1.81068">
        <ele>120</ele>
        <time>2024-10-31T14:18:45+01:00</time>
      </trkpt>
      <trkpt lat="43.85156" lon="1.81079">
        <ele>120</ele>
      </trkpt>
      <trkpt lat="43.85169" lon="1.81105">
        <ele>120</ele>
        <time>2024-10-31T14:19:05+01:00</time>
      </trkpt>
      <trkpt lat="43.8516" lon="1.81141">
        <ele>120</ele>
        <time>2024-10-31T14:19:35+01:00</time>
      </trkpt>
      <trkpt lat="43.85162" lon="1.81155">
        <ele>120</ele>
        <time>2024-10-31T14:20:10+01:00</time>
      </trkpt>
      <trkpt lat="43.85199" lon="1.81161">
        <ele>120</ele>
      </trkpt>
      <trkpt lat="43.8519" lon="1.81203">
        <ele>113</ele>
      </trkpt>
      <trkpt lat="43.85237" lon="1.81221">
        <ele>107</ele>
        <time>2024-10-31T14:21:20+01:00</time>
      </trkpt>
      <trkpt lat="43.85203" lon="1.8121">
        <ele>111</ele>
      </trkpt>
      <trkpt lat="43.85191" lon="1.81196">
        <ele>115</ele>
      </trkpt>
      <trkpt lat="43.85196" lon="1.81182">
        <ele>118</ele>
      </trkpt>
      <trkpt lat="43.852" lon="1.81165">
        <ele>120</ele>
      </trkpt>
      <trkpt lat="43.85211" lon="1.81167">
        <ele>120</ele>
        <time>2024-10-31T14:23:55+01:00</time>
      </trkpt>
      <trkpt lat="43.85239" lon="1.81168">
        <ele>120</ele>
        <time>2024-10-31T14:24:15+01:00</time>
      </trkpt>
      <trkpt lat="43.85265" lon="1.81176">
        <ele>119</ele>
        <time>2024-10-31T14:24:35+01:00</time>
      </trkpt>
      <trkpt lat="43.85291" lon="1.81178">
        <ele>119</ele>
        <time>2024-10-31T14:25:25+01:00</time>
      </trkpt>
      <trkpt lat="43.85313" lon="1.81183">
        <ele>120</ele>
        <time>2024-10-31T14:25:45+01:00</time>
      </trkpt>
      <trkpt lat="43.85344" lon="1.81188">
        <ele>120</ele>
        <time>2024-10-31T14:26:10+01:00</time>
      </trkpt>
      <trkpt lat="43.85367" lon="1.81193">
        <ele>120</ele>
        <time>2024-10-31T14:26:30+01:00</time>
      </trkpt>
      <trkpt lat="43.8539" lon="1.81198">
        <ele>120</ele>
        <time>2024-10-31T14:27:05+01:00</time>
      </trkpt>
      <trkpt lat="43.85415" lon="1.81197">
        <ele>120</ele>
        <time>2024-10-31T14:27:25+01:00</time>
      </trkpt>
      <trkpt lat="43.8543" lon="1.81203">
        <ele>120</ele>
      </trkpt>
      <trkpt lat="43.85439" lon="1.81185">
        <ele>122</ele>
        <time>2024-10-31T14:28:00+01:00</time>
      </trkpt>
      <trkpt lat="43.85456" lon="1.81154">
        <ele>124</ele>
        <time>2024-10-31T14:28:40+01:00</time>
      </trkpt>
      <trkpt lat="43.85472" lon="1.81121">
        <ele>124</ele>
        <time>2024-10-31T14:29:00+01:00</time>
      </trkpt>
      <trkpt lat="43.85499" lon="1.81127">
        <ele>125</ele>
        <time>2024-10-31T14:29:35+01:00</time>
      </trkpt>
      <trkpt lat="43.85523" lon="1.81117">
        <ele>125</ele>
        <time>2024-10-31T14:30:00+01:00</time>
      </trkpt>
      <trkpt lat="43.85548" lon="1.81111">
        <ele>125</ele>
        <time>2024-10-31T14:30:15+01:00</time>
      </trkpt>
      <trkpt lat="43.85569" lon="1.81111">
        <ele>125</ele>
        <time>2024-10-31T14:30:35+01:00</time>
      </trkpt>
      <trkpt lat="43.8559" lon="1.8111">
        <ele>125</ele>
        <time>2024-10-31T14:31:00+01:00</time>
      </trkpt>
      <trkpt lat="43.85611" lon="1.81112">
        <ele>125</ele>
        <time>2024-10-31T14:31:40+01:00</time>
      </trkpt>
      <trkpt lat="43.85643" lon="1.81122">
        <ele>125</ele>
        <time>2024-10-31T14:32:05+01:00</time>
      </trkpt>
      <trkpt lat="43.85676" lon="1.81134">
        <ele>125</ele>
        <time>2024-10-31T14:32:20+01:00</time>
      </trkpt>
      <trkpt lat="43.8569" lon="1.81159">
        <ele>125</ele>
        <time>2024-10-31T14:33:00+01:00</time>
      </trkpt>
    </trkseg>
  </trk>
</gpx>